<?xml version="1.0" encoding="utf-8"?>
<gpx xmlns:xsi="http://www.w3.org/2001/XMLSchema-instance" xmlns:xsd="http://www.w3.org/2001/XMLSchema" version="1.1" creator="Shapelink.com" xmlns="http://www.topografix.com/GPX/1/1" xmlns:gpxtpx="http://www.garmin.com/xmlschemas/TrackPointExtension/v1">
  <metadata>
    <name>Rullskidor - Klassisk 11.69 km, 2011-11-28</name>
    <desc></desc>
    <author><name>Alexander Engvall</name></author> 
    <time>2011-11-28T20:54:47Z</time>
  </metadata>
  <trk>
    <name>Rullskidor - Klassisk 11.69 km, 2011-11-28</name>
    <trkseg>
      <trkpt lat="59.3872329" lon="17.9109311">
        <ele>2.8</ele>
        <time>2011-11-28T20:54:47Z</time>
      </trkpt>
      <trkpt lat="59.3872143" lon="17.9112044">
        <ele>2</ele>
        <time>2011-11-28T20:54:53Z</time>
      </trkpt>
      <trkpt lat="59.3871989" lon="17.9115665">
        <ele>1</ele>
        <time>2011-11-28T20:54:58Z</time>
      </trkpt>
      <trkpt lat="59.3871763" lon="17.9119817">
        <ele>0</ele>
        <time>2011-11-28T20:55:03Z</time>
      </trkpt>
      <trkpt lat="59.3871485" lon="17.9123928">
        <ele>0</ele>
        <time>2011-11-28T20:55:09Z</time>
      </trkpt>
      <trkpt lat="59.3871382" lon="17.9125862">
        <ele>0</ele>
        <time>2011-11-28T20:55:12Z</time>
      </trkpt>
      <trkpt lat="59.3871318" lon="17.9127939">
        <ele>0</ele>
        <time>2011-11-28T20:55:15Z</time>
      </trkpt>
      <trkpt lat="59.3871022" lon="17.9132019">
        <ele>0</ele>
        <time>2011-11-28T20:55:21Z</time>
      </trkpt>
      <trkpt lat="59.3871117" lon="17.9135604">
        <ele>0</ele>
        <time>2011-11-28T20:55:27Z</time>
      </trkpt>
      <trkpt lat="59.3871608" lon="17.9139333">
        <ele>0</ele>
        <time>2011-11-28T20:55:32Z</time>
      </trkpt>
      <trkpt lat="59.387235" lon="17.9143246">
        <ele>0</ele>
        <time>2011-11-28T20:55:37Z</time>
      </trkpt>
      <trkpt lat="59.387308" lon="17.9147001">
        <ele>0</ele>
        <time>2011-11-28T20:55:43Z</time>
      </trkpt>
      <trkpt lat="59.3873536" lon="17.915024">
        <ele>0</ele>
        <time>2011-11-28T20:55:49Z</time>
      </trkpt>
      <trkpt lat="59.3874078" lon="17.9153928">
        <ele>0</ele>
        <time>2011-11-28T20:55:55Z</time>
      </trkpt>
      <trkpt lat="59.3874842" lon="17.9157357">
        <ele>0</ele>
        <time>2011-11-28T20:56:02Z</time>
      </trkpt>
      <trkpt lat="59.3876514" lon="17.9159159">
        <ele>1.6</ele>
        <time>2011-11-28T20:56:08Z</time>
      </trkpt>
      <trkpt lat="59.3878498" lon="17.9160211">
        <ele>5</ele>
        <time>2011-11-28T20:56:14Z</time>
      </trkpt>
      <trkpt lat="59.3880435" lon="17.9161519">
        <ele>4.4</ele>
        <time>2011-11-28T20:56:20Z</time>
      </trkpt>
      <trkpt lat="59.3882457" lon="17.9162758">
        <ele>3.8</ele>
        <time>2011-11-28T20:56:26Z</time>
      </trkpt>
      <trkpt lat="59.3884368" lon="17.9164379">
        <ele>3.6</ele>
        <time>2011-11-28T20:56:32Z</time>
      </trkpt>
      <trkpt lat="59.3886321" lon="17.916564">
        <ele>5.8</ele>
        <time>2011-11-28T20:56:38Z</time>
      </trkpt>
      <trkpt lat="59.3888082" lon="17.9167146">
        <ele>5.8</ele>
        <time>2011-11-28T20:56:44Z</time>
      </trkpt>
      <trkpt lat="59.3889927" lon="17.9168415">
        <ele>4.2</ele>
        <time>2011-11-28T20:56:50Z</time>
      </trkpt>
      <trkpt lat="59.3891761" lon="17.9170256">
        <ele>0</ele>
        <time>2011-11-28T20:56:57Z</time>
      </trkpt>
      <trkpt lat="59.3893618" lon="17.9172078">
        <ele>0.4</ele>
        <time>2011-11-28T20:57:03Z</time>
      </trkpt>
      <trkpt lat="59.3895204" lon="17.9173374">
        <ele>1.2</ele>
        <time>2011-11-28T20:57:08Z</time>
      </trkpt>
      <trkpt lat="59.3896969" lon="17.9174968">
        <ele>1.2</ele>
        <time>2011-11-28T20:57:14Z</time>
      </trkpt>
      <trkpt lat="59.3898613" lon="17.917705">
        <ele>2</ele>
        <time>2011-11-28T20:57:21Z</time>
      </trkpt>
      <trkpt lat="59.3900085" lon="17.9178911">
        <ele>4.2</ele>
        <time>2011-11-28T20:57:26Z</time>
      </trkpt>
      <trkpt lat="59.3901838" lon="17.9180722">
        <ele>5.4</ele>
        <time>2011-11-28T20:57:31Z</time>
      </trkpt>
      <trkpt lat="59.390361" lon="17.9182466">
        <ele>6</ele>
        <time>2011-11-28T20:57:40Z</time>
      </trkpt>
      <trkpt lat="59.3905392" lon="17.9184205">
        <ele>7</ele>
        <time>2011-11-28T20:57:49Z</time>
      </trkpt>
      <trkpt lat="59.3907332" lon="17.9185638">
        <ele>8.4</ele>
        <time>2011-11-28T20:57:57Z</time>
      </trkpt>
      <trkpt lat="59.3909268" lon="17.9186406">
        <ele>10.2</ele>
        <time>2011-11-28T20:58:04Z</time>
      </trkpt>
      <trkpt lat="59.3911097" lon="17.9187609">
        <ele>12.6</ele>
        <time>2011-11-28T20:58:11Z</time>
      </trkpt>
      <trkpt lat="59.3913165" lon="17.9188788">
        <ele>11.6</ele>
        <time>2011-11-28T20:58:18Z</time>
      </trkpt>
      <trkpt lat="59.3915081" lon="17.9190157">
        <ele>9.8</ele>
        <time>2011-11-28T20:58:24Z</time>
      </trkpt>
      <trkpt lat="59.3916769" lon="17.9191934">
        <ele>7.4</ele>
        <time>2011-11-28T20:58:29Z</time>
      </trkpt>
      <trkpt lat="59.3918304" lon="17.9194846">
        <ele>5</ele>
        <time>2011-11-28T20:58:34Z</time>
      </trkpt>
      <trkpt lat="59.3918582" lon="17.9195514">
        <ele>4.8</ele>
        <time>2011-11-28T20:58:35Z</time>
      </trkpt>
      <trkpt lat="59.3919633" lon="17.9197731">
        <ele>2.8</ele>
        <time>2011-11-28T20:58:39Z</time>
      </trkpt>
      <trkpt lat="59.3921037" lon="17.920032">
        <ele>0.2</ele>
        <time>2011-11-28T20:58:44Z</time>
      </trkpt>
      <trkpt lat="59.3922471" lon="17.9203154">
        <ele>0</ele>
        <time>2011-11-28T20:58:49Z</time>
      </trkpt>
      <trkpt lat="59.3923566" lon="17.9205236">
        <ele>0</ele>
        <time>2011-11-28T20:58:54Z</time>
      </trkpt>
      <trkpt lat="59.3923781" lon="17.9205765">
        <ele>0</ele>
        <time>2011-11-28T20:58:55Z</time>
      </trkpt>
      <trkpt lat="59.392486" lon="17.9208612">
        <ele>0</ele>
        <time>2011-11-28T20:59:01Z</time>
      </trkpt>
      <trkpt lat="59.3925777" lon="17.921085">
        <ele>0</ele>
        <time>2011-11-28T20:59:06Z</time>
      </trkpt>
      <trkpt lat="59.3926063" lon="17.9211577">
        <ele>0</ele>
        <time>2011-11-28T20:59:08Z</time>
      </trkpt>
      <trkpt lat="59.3926532" lon="17.9212337">
        <ele>0</ele>
        <time>2011-11-28T20:59:13Z</time>
      </trkpt>
      <trkpt lat="59.3926177" lon="17.921116">
        <ele>4.6</ele>
        <time>2011-11-28T20:59:22Z</time>
      </trkpt>
      <trkpt lat="59.3925824" lon="17.9210475">
        <ele>4.8</ele>
        <time>2011-11-28T20:59:26Z</time>
      </trkpt>
      <trkpt lat="59.3924523" lon="17.9208109">
        <ele>5</ele>
        <time>2011-11-28T20:59:33Z</time>
      </trkpt>
      <trkpt lat="59.3922955" lon="17.9205319">
        <ele>4</ele>
        <time>2011-11-28T20:59:39Z</time>
      </trkpt>
      <trkpt lat="59.3921531" lon="17.9202698">
        <ele>1.8</ele>
        <time>2011-11-28T20:59:44Z</time>
      </trkpt>
      <trkpt lat="59.3920313" lon="17.9200341">
        <ele>0.8</ele>
        <time>2011-11-28T20:59:48Z</time>
      </trkpt>
      <trkpt lat="59.3919775" lon="17.919906">
        <ele>1.2</ele>
        <time>2011-11-28T20:59:50Z</time>
      </trkpt>
      <trkpt lat="59.3918972" lon="17.9197444">
        <ele>0.4</ele>
        <time>2011-11-28T20:59:53Z</time>
      </trkpt>
      <trkpt lat="59.3917536" lon="17.9194424">
        <ele>2.8</ele>
        <time>2011-11-28T20:59:59Z</time>
      </trkpt>
      <trkpt lat="59.3915967" lon="17.919212">
        <ele>4.8</ele>
        <time>2011-11-28T21:00:06Z</time>
      </trkpt>
      <trkpt lat="59.3915002" lon="17.9191261">
        <ele>6</ele>
        <time>2011-11-28T21:00:10Z</time>
      </trkpt>
      <trkpt lat="59.3914144" lon="17.9190918">
        <ele>7.4</ele>
        <time>2011-11-28T21:00:13Z</time>
      </trkpt>
      <trkpt lat="59.391232" lon="17.918951">
        <ele>10</ele>
        <time>2011-11-28T21:00:21Z</time>
      </trkpt>
      <trkpt lat="59.3910612" lon="17.9188081">
        <ele>11.8</ele>
        <time>2011-11-28T21:00:28Z</time>
      </trkpt>
      <trkpt lat="59.390887" lon="17.9186861">
        <ele>10.8</ele>
        <time>2011-11-28T21:00:34Z</time>
      </trkpt>
      <trkpt lat="59.390699" lon="17.9185696">
        <ele>10.8</ele>
        <time>2011-11-28T21:00:39Z</time>
      </trkpt>
      <trkpt lat="59.3905" lon="17.9184318">
        <ele>11.2</ele>
        <time>2011-11-28T21:00:44Z</time>
      </trkpt>
      <trkpt lat="59.3904612" lon="17.9184045">
        <ele>11</ele>
        <time>2011-11-28T21:00:45Z</time>
      </trkpt>
      <trkpt lat="59.3902918" lon="17.9182615">
        <ele>10.6</ele>
        <time>2011-11-28T21:00:49Z</time>
      </trkpt>
      <trkpt lat="59.39011" lon="17.9180952">
        <ele>10.2</ele>
        <time>2011-11-28T21:00:53Z</time>
      </trkpt>
      <trkpt lat="59.3900025" lon="17.9179614">
        <ele>9</ele>
        <time>2011-11-28T21:00:56Z</time>
      </trkpt>
      <trkpt lat="59.3899271" lon="17.9178771">
        <ele>8.2</ele>
        <time>2011-11-28T21:00:58Z</time>
      </trkpt>
      <trkpt lat="59.3898214" lon="17.9177319">
        <ele>7.8</ele>
        <time>2011-11-28T21:01:01Z</time>
      </trkpt>
      <trkpt lat="59.3897843" lon="17.9176866">
        <ele>7.6</ele>
        <time>2011-11-28T21:01:02Z</time>
      </trkpt>
      <trkpt lat="59.3896271" lon="17.9175066">
        <ele>6.4</ele>
        <time>2011-11-28T21:01:06Z</time>
      </trkpt>
      <trkpt lat="59.3895004" lon="17.9174012">
        <ele>5.2</ele>
        <time>2011-11-28T21:01:09Z</time>
      </trkpt>
      <trkpt lat="59.3894128" lon="17.9173441">
        <ele>4</ele>
        <time>2011-11-28T21:01:11Z</time>
      </trkpt>
      <trkpt lat="59.3892462" lon="17.9171916">
        <ele>2.8</ele>
        <time>2011-11-28T21:01:15Z</time>
      </trkpt>
      <trkpt lat="59.3890771" lon="17.9170452">
        <ele>1.6</ele>
        <time>2011-11-28T21:01:19Z</time>
      </trkpt>
      <trkpt lat="59.3890367" lon="17.9170183">
        <ele>0.8</ele>
        <time>2011-11-28T21:01:20Z</time>
      </trkpt>
      <trkpt lat="59.3889085" lon="17.9169177">
        <ele>0</ele>
        <time>2011-11-28T21:01:23Z</time>
      </trkpt>
      <trkpt lat="59.3887396" lon="17.9167696">
        <ele>0</ele>
        <time>2011-11-28T21:01:27Z</time>
      </trkpt>
      <trkpt lat="59.3885477" lon="17.9165919">
        <ele>0</ele>
        <time>2011-11-28T21:01:32Z</time>
      </trkpt>
      <trkpt lat="59.3883792" lon="17.9164785">
        <ele>0</ele>
        <time>2011-11-28T21:01:36Z</time>
      </trkpt>
      <trkpt lat="59.3883338" lon="17.9164624">
        <ele>0</ele>
        <time>2011-11-28T21:01:37Z</time>
      </trkpt>
      <trkpt lat="59.3882011" lon="17.9163656">
        <ele>0</ele>
        <time>2011-11-28T21:01:40Z</time>
      </trkpt>
      <trkpt lat="59.388111" lon="17.916296">
        <ele>0</ele>
        <time>2011-11-28T21:01:42Z</time>
      </trkpt>
      <trkpt lat="59.3880167" lon="17.9162416">
        <ele>0</ele>
        <time>2011-11-28T21:01:44Z</time>
      </trkpt>
      <trkpt lat="59.3878179" lon="17.9161048">
        <ele>0</ele>
        <time>2011-11-28T21:01:49Z</time>
      </trkpt>
      <trkpt lat="59.3876562" lon="17.9159968">
        <ele>0.2</ele>
        <time>2011-11-28T21:01:53Z</time>
      </trkpt>
      <trkpt lat="59.3875422" lon="17.9158819">
        <ele>0.4</ele>
        <time>2011-11-28T21:01:56Z</time>
      </trkpt>
      <trkpt lat="59.3875153" lon="17.9158268">
        <ele>0.4</ele>
        <time>2011-11-28T21:01:57Z</time>
      </trkpt>
      <trkpt lat="59.3874982" lon="17.9157605">
        <ele>1</ele>
        <time>2011-11-28T21:01:58Z</time>
      </trkpt>
      <trkpt lat="59.3874803" lon="17.9156386">
        <ele>0.8</ele>
        <time>2011-11-28T21:02:00Z</time>
      </trkpt>
      <trkpt lat="59.3874458" lon="17.9153855">
        <ele>0.2</ele>
        <time>2011-11-28T21:02:04Z</time>
      </trkpt>
      <trkpt lat="59.3873952" lon="17.9150347">
        <ele>0</ele>
        <time>2011-11-28T21:02:09Z</time>
      </trkpt>
      <trkpt lat="59.387322" lon="17.9146875">
        <ele>0</ele>
        <time>2011-11-28T21:02:14Z</time>
      </trkpt>
      <trkpt lat="59.3872593" lon="17.9143039">
        <ele>0</ele>
        <time>2011-11-28T21:02:19Z</time>
      </trkpt>
      <trkpt lat="59.3872051" lon="17.913944">
        <ele>0</ele>
        <time>2011-11-28T21:02:24Z</time>
      </trkpt>
      <trkpt lat="59.3871443" lon="17.9135537">
        <ele>0</ele>
        <time>2011-11-28T21:02:31Z</time>
      </trkpt>
      <trkpt lat="59.3871387" lon="17.9131374">
        <ele>0</ele>
        <time>2011-11-28T21:02:37Z</time>
      </trkpt>
      <trkpt lat="59.3871547" lon="17.9127353">
        <ele>0</ele>
        <time>2011-11-28T21:02:41Z</time>
      </trkpt>
      <trkpt lat="59.3871738" lon="17.9123349">
        <ele>0</ele>
        <time>2011-11-28T21:02:45Z</time>
      </trkpt>
      <trkpt lat="59.3871832" lon="17.9119521">
        <ele>0</ele>
        <time>2011-11-28T21:02:49Z</time>
      </trkpt>
      <trkpt lat="59.3872063" lon="17.911535">
        <ele>0</ele>
        <time>2011-11-28T21:02:54Z</time>
      </trkpt>
      <trkpt lat="59.3872096" lon="17.911458">
        <ele>0</ele>
        <time>2011-11-28T21:02:55Z</time>
      </trkpt>
      <trkpt lat="59.3872276" lon="17.9111581">
        <ele>0</ele>
        <time>2011-11-28T21:02:59Z</time>
      </trkpt>
      <trkpt lat="59.3872359" lon="17.9110797">
        <ele>0</ele>
        <time>2011-11-28T21:03:00Z</time>
      </trkpt>
      <trkpt lat="59.387241" lon="17.9109989">
        <ele>0</ele>
        <time>2011-11-28T21:03:01Z</time>
      </trkpt>
      <trkpt lat="59.3872574" lon="17.9107688">
        <ele>0</ele>
        <time>2011-11-28T21:03:04Z</time>
      </trkpt>
      <trkpt lat="59.3873023" lon="17.9103989">
        <ele>0</ele>
        <time>2011-11-28T21:03:09Z</time>
      </trkpt>
      <trkpt lat="59.3873444" lon="17.9101624">
        <ele>0</ele>
        <time>2011-11-28T21:03:12Z</time>
      </trkpt>
      <trkpt lat="59.3873801" lon="17.910017">
        <ele>0</ele>
        <time>2011-11-28T21:03:14Z</time>
      </trkpt>
      <trkpt lat="59.3874391" lon="17.9098201">
        <ele>0</ele>
        <time>2011-11-28T21:03:17Z</time>
      </trkpt>
      <trkpt lat="59.3875012" lon="17.909648">
        <ele>0</ele>
        <time>2011-11-28T21:03:20Z</time>
      </trkpt>
      <trkpt lat="59.3876114" lon="17.9093241">
        <ele>1.6</ele>
        <time>2011-11-28T21:03:25Z</time>
      </trkpt>
      <trkpt lat="59.3877089" lon="17.9090136">
        <ele>3.8</ele>
        <time>2011-11-28T21:03:30Z</time>
      </trkpt>
      <trkpt lat="59.3878059" lon="17.9086654">
        <ele>7</ele>
        <time>2011-11-28T21:03:35Z</time>
      </trkpt>
      <trkpt lat="59.3878862" lon="17.9083115">
        <ele>7</ele>
        <time>2011-11-28T21:03:41Z</time>
      </trkpt>
      <trkpt lat="59.3879214" lon="17.9079349">
        <ele>7.8</ele>
        <time>2011-11-28T21:03:47Z</time>
      </trkpt>
      <trkpt lat="59.3879613" lon="17.9075708">
        <ele>7.6</ele>
        <time>2011-11-28T21:03:53Z</time>
      </trkpt>
      <trkpt lat="59.3879908" lon="17.907188">
        <ele>4.6</ele>
        <time>2011-11-28T21:03:59Z</time>
      </trkpt>
      <trkpt lat="59.3881043" lon="17.9068703">
        <ele>3</ele>
        <time>2011-11-28T21:04:05Z</time>
      </trkpt>
      <trkpt lat="59.3882326" lon="17.9065415">
        <ele>5.8</ele>
        <time>2011-11-28T21:04:11Z</time>
      </trkpt>
      <trkpt lat="59.3883264" lon="17.9062373">
        <ele>4.8</ele>
        <time>2011-11-28T21:04:16Z</time>
      </trkpt>
      <trkpt lat="59.3884485" lon="17.9059168">
        <ele>5.2</ele>
        <time>2011-11-28T21:04:22Z</time>
      </trkpt>
      <trkpt lat="59.3885564" lon="17.9055873">
        <ele>4.2</ele>
        <time>2011-11-28T21:04:28Z</time>
      </trkpt>
      <trkpt lat="59.3886533" lon="17.9053036">
        <ele>4.8</ele>
        <time>2011-11-28T21:04:33Z</time>
      </trkpt>
      <trkpt lat="59.3887683" lon="17.9049647">
        <ele>5.6</ele>
        <time>2011-11-28T21:04:39Z</time>
      </trkpt>
      <trkpt lat="59.3888734" lon="17.9046224">
        <ele>5.6</ele>
        <time>2011-11-28T21:04:46Z</time>
      </trkpt>
      <trkpt lat="59.3889662" lon="17.904274">
        <ele>2.4</ele>
        <time>2011-11-28T21:04:53Z</time>
      </trkpt>
      <trkpt lat="59.3890574" lon="17.9039685">
        <ele>1.2</ele>
        <time>2011-11-28T21:04:58Z</time>
      </trkpt>
      <trkpt lat="59.3891781" lon="17.9036319">
        <ele>5.8</ele>
        <time>2011-11-28T21:05:04Z</time>
      </trkpt>
      <trkpt lat="59.3892735" lon="17.9033393">
        <ele>7</ele>
        <time>2011-11-28T21:05:09Z</time>
      </trkpt>
      <trkpt lat="59.3893844" lon="17.9030209">
        <ele>8</ele>
        <time>2011-11-28T21:05:15Z</time>
      </trkpt>
      <trkpt lat="59.3894937" lon="17.9026844">
        <ele>9.6</ele>
        <time>2011-11-28T21:05:22Z</time>
      </trkpt>
      <trkpt lat="59.3896204" lon="17.9023523">
        <ele>9.8</ele>
        <time>2011-11-28T21:05:29Z</time>
      </trkpt>
      <trkpt lat="59.3897276" lon="17.9019986">
        <ele>9.2</ele>
        <time>2011-11-28T21:05:36Z</time>
      </trkpt>
      <trkpt lat="59.3898137" lon="17.9016732">
        <ele>9.4</ele>
        <time>2011-11-28T21:05:42Z</time>
      </trkpt>
      <trkpt lat="59.3898924" lon="17.9013058">
        <ele>9</ele>
        <time>2011-11-28T21:05:48Z</time>
      </trkpt>
      <trkpt lat="59.3899566" lon="17.9009874">
        <ele>8</ele>
        <time>2011-11-28T21:05:53Z</time>
      </trkpt>
      <trkpt lat="59.3900276" lon="17.9006462">
        <ele>7.6</ele>
        <time>2011-11-28T21:05:58Z</time>
      </trkpt>
      <trkpt lat="59.3900882" lon="17.9003041">
        <ele>8</ele>
        <time>2011-11-28T21:06:03Z</time>
      </trkpt>
      <trkpt lat="59.3901726" lon="17.8999329">
        <ele>8.6</ele>
        <time>2011-11-28T21:06:09Z</time>
      </trkpt>
      <trkpt lat="59.3902576" lon="17.8996137">
        <ele>9</ele>
        <time>2011-11-28T21:06:14Z</time>
      </trkpt>
      <trkpt lat="59.3903675" lon="17.8992432">
        <ele>8</ele>
        <time>2011-11-28T21:06:20Z</time>
      </trkpt>
      <trkpt lat="59.3904663" lon="17.8989522">
        <ele>8.2</ele>
        <time>2011-11-28T21:06:25Z</time>
      </trkpt>
      <trkpt lat="59.3905682" lon="17.898603">
        <ele>6.8</ele>
        <time>2011-11-28T21:06:30Z</time>
      </trkpt>
      <trkpt lat="59.390672" lon="17.8982583">
        <ele>5.2</ele>
        <time>2011-11-28T21:06:35Z</time>
      </trkpt>
      <trkpt lat="59.3907311" lon="17.8980582">
        <ele>5.2</ele>
        <time>2011-11-28T21:06:38Z</time>
      </trkpt>
      <trkpt lat="59.3907653" lon="17.8979271">
        <ele>4.8</ele>
        <time>2011-11-28T21:06:40Z</time>
      </trkpt>
      <trkpt lat="59.3908514" lon="17.8975866">
        <ele>5.6</ele>
        <time>2011-11-28T21:06:45Z</time>
      </trkpt>
      <trkpt lat="59.3909453" lon="17.8972541">
        <ele>5.8</ele>
        <time>2011-11-28T21:06:50Z</time>
      </trkpt>
      <trkpt lat="59.3910414" lon="17.8969134">
        <ele>6.2</ele>
        <time>2011-11-28T21:06:56Z</time>
      </trkpt>
      <trkpt lat="59.391138" lon="17.8965551">
        <ele>7.4</ele>
        <time>2011-11-28T21:07:02Z</time>
      </trkpt>
      <trkpt lat="59.3912341" lon="17.8962336">
        <ele>7.6</ele>
        <time>2011-11-28T21:07:08Z</time>
      </trkpt>
      <trkpt lat="59.3913465" lon="17.8958766">
        <ele>8.2</ele>
        <time>2011-11-28T21:07:15Z</time>
      </trkpt>
      <trkpt lat="59.3914268" lon="17.8955272">
        <ele>8.4</ele>
        <time>2011-11-28T21:07:21Z</time>
      </trkpt>
      <trkpt lat="59.3915257" lon="17.895185">
        <ele>8</ele>
        <time>2011-11-28T21:07:27Z</time>
      </trkpt>
      <trkpt lat="59.3916286" lon="17.8948309">
        <ele>8.6</ele>
        <time>2011-11-28T21:07:33Z</time>
      </trkpt>
      <trkpt lat="59.3917152" lon="17.8944981">
        <ele>8.8</ele>
        <time>2011-11-28T21:07:39Z</time>
      </trkpt>
      <trkpt lat="59.3917951" lon="17.8941719">
        <ele>9.2</ele>
        <time>2011-11-28T21:07:45Z</time>
      </trkpt>
      <trkpt lat="59.391893" lon="17.8938288">
        <ele>8</ele>
        <time>2011-11-28T21:07:51Z</time>
      </trkpt>
      <trkpt lat="59.3919817" lon="17.8935175">
        <ele>8.2</ele>
        <time>2011-11-28T21:07:56Z</time>
      </trkpt>
      <trkpt lat="59.3921261" lon="17.8932224">
        <ele>8.4</ele>
        <time>2011-11-28T21:08:02Z</time>
      </trkpt>
      <trkpt lat="59.3922409" lon="17.8928724">
        <ele>9</ele>
        <time>2011-11-28T21:08:08Z</time>
      </trkpt>
      <trkpt lat="59.3923503" lon="17.8925681">
        <ele>9</ele>
        <time>2011-11-28T21:08:14Z</time>
      </trkpt>
      <trkpt lat="59.3924597" lon="17.8922785">
        <ele>8</ele>
        <time>2011-11-28T21:08:19Z</time>
      </trkpt>
      <trkpt lat="59.3925929" lon="17.8919619">
        <ele>6.6</ele>
        <time>2011-11-28T21:08:24Z</time>
      </trkpt>
      <trkpt lat="59.3926508" lon="17.8918268">
        <ele>6.4</ele>
        <time>2011-11-28T21:08:26Z</time>
      </trkpt>
      <trkpt lat="59.392705" lon="17.8916906">
        <ele>6.2</ele>
        <time>2011-11-28T21:08:28Z</time>
      </trkpt>
      <trkpt lat="59.3927609" lon="17.8915542">
        <ele>5.6</ele>
        <time>2011-11-28T21:08:30Z</time>
      </trkpt>
      <trkpt lat="59.3928138" lon="17.8913992">
        <ele>5.6</ele>
        <time>2011-11-28T21:08:32Z</time>
      </trkpt>
      <trkpt lat="59.3928913" lon="17.8910851">
        <ele>6.2</ele>
        <time>2011-11-28T21:08:36Z</time>
      </trkpt>
      <trkpt lat="59.3929076" lon="17.8910095">
        <ele>5.8</ele>
        <time>2011-11-28T21:08:37Z</time>
      </trkpt>
      <trkpt lat="59.392983" lon="17.8906785">
        <ele>5.4</ele>
        <time>2011-11-28T21:08:41Z</time>
      </trkpt>
      <trkpt lat="59.3929979" lon="17.8905961">
        <ele>5.2</ele>
        <time>2011-11-28T21:08:42Z</time>
      </trkpt>
      <trkpt lat="59.3930671" lon="17.8902656">
        <ele>4.6</ele>
        <time>2011-11-28T21:08:46Z</time>
      </trkpt>
      <trkpt lat="59.3931539" lon="17.8898831">
        <ele>5</ele>
        <time>2011-11-28T21:08:51Z</time>
      </trkpt>
      <trkpt lat="59.3932683" lon="17.8896094">
        <ele>5.2</ele>
        <time>2011-11-28T21:08:56Z</time>
      </trkpt>
      <trkpt lat="59.393295" lon="17.8895587">
        <ele>4.8</ele>
        <time>2011-11-28T21:08:57Z</time>
      </trkpt>
      <trkpt lat="59.3933808" lon="17.8894217">
        <ele>5.2</ele>
        <time>2011-11-28T21:09:00Z</time>
      </trkpt>
      <trkpt lat="59.3934564" lon="17.8892969">
        <ele>5.8</ele>
        <time>2011-11-28T21:09:03Z</time>
      </trkpt>
      <trkpt lat="59.3935962" lon="17.8890152">
        <ele>6.4</ele>
        <time>2011-11-28T21:09:10Z</time>
      </trkpt>
      <trkpt lat="59.3936511" lon="17.8889244">
        <ele>6.4</ele>
        <time>2011-11-28T21:09:13Z</time>
      </trkpt>
      <trkpt lat="59.3936256" lon="17.8890487">
        <ele>6</ele>
        <time>2011-11-28T21:09:22Z</time>
      </trkpt>
      <trkpt lat="59.3934817" lon="17.8893416">
        <ele>6.4</ele>
        <time>2011-11-28T21:09:28Z</time>
      </trkpt>
      <trkpt lat="59.393342" lon="17.8896224">
        <ele>6.4</ele>
        <time>2011-11-28T21:09:33Z</time>
      </trkpt>
      <trkpt lat="59.393203" lon="17.8899082">
        <ele>5.8</ele>
        <time>2011-11-28T21:09:38Z</time>
      </trkpt>
      <trkpt lat="59.3931635" lon="17.8900485">
        <ele>4.8</ele>
        <time>2011-11-28T21:09:40Z</time>
      </trkpt>
      <trkpt lat="59.3931213" lon="17.8902408">
        <ele>4.2</ele>
        <time>2011-11-28T21:09:43Z</time>
      </trkpt>
      <trkpt lat="59.3930347" lon="17.8906018">
        <ele>4.4</ele>
        <time>2011-11-28T21:09:49Z</time>
      </trkpt>
      <trkpt lat="59.3929518" lon="17.8909649">
        <ele>5.2</ele>
        <time>2011-11-28T21:09:56Z</time>
      </trkpt>
      <trkpt lat="59.3928816" lon="17.8912963">
        <ele>5.8</ele>
        <time>2011-11-28T21:10:03Z</time>
      </trkpt>
      <trkpt lat="59.3927611" lon="17.8916228">
        <ele>5.4</ele>
        <time>2011-11-28T21:10:11Z</time>
      </trkpt>
      <trkpt lat="59.3926516" lon="17.8919005">
        <ele>4.8</ele>
        <time>2011-11-28T21:10:16Z</time>
      </trkpt>
      <trkpt lat="59.3925185" lon="17.8922098">
        <ele>5</ele>
        <time>2011-11-28T21:10:24Z</time>
      </trkpt>
      <trkpt lat="59.3924098" lon="17.8925101">
        <ele>5</ele>
        <time>2011-11-28T21:10:31Z</time>
      </trkpt>
      <trkpt lat="59.3923005" lon="17.89282">
        <ele>5.2</ele>
        <time>2011-11-28T21:10:38Z</time>
      </trkpt>
      <trkpt lat="59.392198" lon="17.8931728">
        <ele>6</ele>
        <time>2011-11-28T21:10:45Z</time>
      </trkpt>
      <trkpt lat="59.3920795" lon="17.8934721">
        <ele>7.6</ele>
        <time>2011-11-28T21:10:51Z</time>
      </trkpt>
      <trkpt lat="59.3919596" lon="17.8937829">
        <ele>9</ele>
        <time>2011-11-28T21:10:58Z</time>
      </trkpt>
      <trkpt lat="59.3918752" lon="17.8940671">
        <ele>9</ele>
        <time>2011-11-28T21:11:04Z</time>
      </trkpt>
      <trkpt lat="59.3917718" lon="17.8944355">
        <ele>9.6</ele>
        <time>2011-11-28T21:11:10Z</time>
      </trkpt>
      <trkpt lat="59.3916833" lon="17.8947542">
        <ele>9.2</ele>
        <time>2011-11-28T21:11:15Z</time>
      </trkpt>
      <trkpt lat="59.3915993" lon="17.8951156">
        <ele>8.2</ele>
        <time>2011-11-28T21:11:20Z</time>
      </trkpt>
      <trkpt lat="59.39153" lon="17.8954077">
        <ele>7.6</ele>
        <time>2011-11-28T21:11:24Z</time>
      </trkpt>
      <trkpt lat="59.391505" lon="17.8954779">
        <ele>7.6</ele>
        <time>2011-11-28T21:11:25Z</time>
      </trkpt>
      <trkpt lat="59.3914204" lon="17.8957716">
        <ele>5.8</ele>
        <time>2011-11-28T21:11:29Z</time>
      </trkpt>
      <trkpt lat="59.3914036" lon="17.8958408">
        <ele>6.2</ele>
        <time>2011-11-28T21:11:30Z</time>
      </trkpt>
      <trkpt lat="59.3913861" lon="17.8959169">
        <ele>6.6</ele>
        <time>2011-11-28T21:11:31Z</time>
      </trkpt>
      <trkpt lat="59.3913531" lon="17.8960616">
        <ele>7</ele>
        <time>2011-11-28T21:11:33Z</time>
      </trkpt>
      <trkpt lat="59.3913061" lon="17.8962195">
        <ele>6.4</ele>
        <time>2011-11-28T21:11:35Z</time>
      </trkpt>
      <trkpt lat="59.3911993" lon="17.8966045">
        <ele>4</ele>
        <time>2011-11-28T21:11:40Z</time>
      </trkpt>
      <trkpt lat="59.3911337" lon="17.8968294">
        <ele>2.4</ele>
        <time>2011-11-28T21:11:43Z</time>
      </trkpt>
      <trkpt lat="59.3910938" lon="17.8969647">
        <ele>2</ele>
        <time>2011-11-28T21:11:45Z</time>
      </trkpt>
      <trkpt lat="59.3910539" lon="17.8971032">
        <ele>1.2</ele>
        <time>2011-11-28T21:11:47Z</time>
      </trkpt>
      <trkpt lat="59.3910308" lon="17.8971812">
        <ele>1.4</ele>
        <time>2011-11-28T21:11:48Z</time>
      </trkpt>
      <trkpt lat="59.3909897" lon="17.897336">
        <ele>1.2</ele>
        <time>2011-11-28T21:11:50Z</time>
      </trkpt>
      <trkpt lat="59.3909196" lon="17.897572">
        <ele>1.6</ele>
        <time>2011-11-28T21:11:53Z</time>
      </trkpt>
      <trkpt lat="59.3908984" lon="17.8976473">
        <ele>2.6</ele>
        <time>2011-11-28T21:11:54Z</time>
      </trkpt>
      <trkpt lat="59.3908068" lon="17.8979939">
        <ele>2.8</ele>
        <time>2011-11-28T21:11:59Z</time>
      </trkpt>
      <trkpt lat="59.3906969" lon="17.8983534">
        <ele>3.2</ele>
        <time>2011-11-28T21:12:04Z</time>
      </trkpt>
      <trkpt lat="59.3905911" lon="17.898689">
        <ele>4</ele>
        <time>2011-11-28T21:12:09Z</time>
      </trkpt>
      <trkpt lat="59.3905698" lon="17.8987583">
        <ele>4</ele>
        <time>2011-11-28T21:12:10Z</time>
      </trkpt>
      <trkpt lat="59.3904902" lon="17.8990322">
        <ele>4</ele>
        <time>2011-11-28T21:12:14Z</time>
      </trkpt>
      <trkpt lat="59.3904679" lon="17.8990998">
        <ele>4.2</ele>
        <time>2011-11-28T21:12:15Z</time>
      </trkpt>
      <trkpt lat="59.3903892" lon="17.8993607">
        <ele>4.8</ele>
        <time>2011-11-28T21:12:19Z</time>
      </trkpt>
      <trkpt lat="59.3902807" lon="17.8997026">
        <ele>3.2</ele>
        <time>2011-11-28T21:12:24Z</time>
      </trkpt>
      <trkpt lat="59.3902016" lon="17.8999736">
        <ele>4</ele>
        <time>2011-11-28T21:12:28Z</time>
      </trkpt>
      <trkpt lat="59.3901825" lon="17.900043">
        <ele>4.2</ele>
        <time>2011-11-28T21:12:29Z</time>
      </trkpt>
      <trkpt lat="59.3901004" lon="17.9004402">
        <ele>5.8</ele>
        <time>2011-11-28T21:12:35Z</time>
      </trkpt>
      <trkpt lat="59.3900372" lon="17.9007988">
        <ele>7.2</ele>
        <time>2011-11-28T21:12:41Z</time>
      </trkpt>
      <trkpt lat="59.3899614" lon="17.9011392">
        <ele>8.4</ele>
        <time>2011-11-28T21:12:47Z</time>
      </trkpt>
      <trkpt lat="59.3898831" lon="17.9014558">
        <ele>9.6</ele>
        <time>2011-11-28T21:12:53Z</time>
      </trkpt>
      <trkpt lat="59.3898054" lon="17.9018176">
        <ele>9.8</ele>
        <time>2011-11-28T21:13:00Z</time>
      </trkpt>
      <trkpt lat="59.3897208" lon="17.90213">
        <ele>9.2</ele>
        <time>2011-11-28T21:13:06Z</time>
      </trkpt>
      <trkpt lat="59.389633" lon="17.9024574">
        <ele>8</ele>
        <time>2011-11-28T21:13:12Z</time>
      </trkpt>
      <trkpt lat="59.3895241" lon="17.9027941">
        <ele>8.6</ele>
        <time>2011-11-28T21:13:18Z</time>
      </trkpt>
      <trkpt lat="59.389407" lon="17.9031247">
        <ele>8</ele>
        <time>2011-11-28T21:13:23Z</time>
      </trkpt>
      <trkpt lat="59.3893133" lon="17.903421">
        <ele>8</ele>
        <time>2011-11-28T21:13:27Z</time>
      </trkpt>
      <trkpt lat="59.3892879" lon="17.9034968">
        <ele>7.8</ele>
        <time>2011-11-28T21:13:28Z</time>
      </trkpt>
      <trkpt lat="59.3892133" lon="17.90372">
        <ele>6.6</ele>
        <time>2011-11-28T21:13:31Z</time>
      </trkpt>
      <trkpt lat="59.3891753" lon="17.9038648">
        <ele>5.8</ele>
        <time>2011-11-28T21:13:33Z</time>
      </trkpt>
      <trkpt lat="59.3891303" lon="17.9039945">
        <ele>5.8</ele>
        <time>2011-11-28T21:13:35Z</time>
      </trkpt>
      <trkpt lat="59.3890647" lon="17.9041716">
        <ele>6</ele>
        <time>2011-11-28T21:13:38Z</time>
      </trkpt>
      <trkpt lat="59.3890465" lon="17.9042307">
        <ele>5.6</ele>
        <time>2011-11-28T21:13:39Z</time>
      </trkpt>
      <trkpt lat="59.3889677" lon="17.9044918">
        <ele>4.2</ele>
        <time>2011-11-28T21:13:43Z</time>
      </trkpt>
      <trkpt lat="59.3888826" lon="17.9047884">
        <ele>2.4</ele>
        <time>2011-11-28T21:13:47Z</time>
      </trkpt>
      <trkpt lat="59.3888349" lon="17.9049203">
        <ele>1.4</ele>
        <time>2011-11-28T21:13:49Z</time>
      </trkpt>
      <trkpt lat="59.3887554" lon="17.9051278">
        <ele>1.2</ele>
        <time>2011-11-28T21:13:52Z</time>
      </trkpt>
      <trkpt lat="59.3887063" lon="17.9052718">
        <ele>1.4</ele>
        <time>2011-11-28T21:13:54Z</time>
      </trkpt>
      <trkpt lat="59.3886347" lon="17.9054621">
        <ele>2.6</ele>
        <time>2011-11-28T21:13:57Z</time>
      </trkpt>
      <trkpt lat="59.3885818" lon="17.9055942">
        <ele>3.6</ele>
        <time>2011-11-28T21:13:59Z</time>
      </trkpt>
      <trkpt lat="59.3885273" lon="17.9057452">
        <ele>3.6</ele>
        <time>2011-11-28T21:14:01Z</time>
      </trkpt>
      <trkpt lat="59.3884332" lon="17.9060224">
        <ele>2.2</ele>
        <time>2011-11-28T21:14:05Z</time>
      </trkpt>
      <trkpt lat="59.3884145" lon="17.9060825">
        <ele>2.2</ele>
        <time>2011-11-28T21:14:06Z</time>
      </trkpt>
      <trkpt lat="59.3883467" lon="17.9062705">
        <ele>1.6</ele>
        <time>2011-11-28T21:14:09Z</time>
      </trkpt>
      <trkpt lat="59.3883026" lon="17.9063999">
        <ele>1.8</ele>
        <time>2011-11-28T21:14:11Z</time>
      </trkpt>
      <trkpt lat="59.388283" lon="17.9064649">
        <ele>2.2</ele>
        <time>2011-11-28T21:14:12Z</time>
      </trkpt>
      <trkpt lat="59.3881893" lon="17.9067658">
        <ele>4</ele>
        <time>2011-11-28T21:14:17Z</time>
      </trkpt>
      <trkpt lat="59.3880861" lon="17.907112">
        <ele>5.2</ele>
        <time>2011-11-28T21:14:23Z</time>
      </trkpt>
      <trkpt lat="59.3880051" lon="17.907489">
        <ele>5.2</ele>
        <time>2011-11-28T21:14:29Z</time>
      </trkpt>
      <trkpt lat="59.3879478" lon="17.90784">
        <ele>3.4</ele>
        <time>2011-11-28T21:14:34Z</time>
      </trkpt>
      <trkpt lat="59.3878929" lon="17.9082267">
        <ele>2.2</ele>
        <time>2011-11-28T21:14:39Z</time>
      </trkpt>
      <trkpt lat="59.3878426" lon="17.9085783">
        <ele>1.2</ele>
        <time>2011-11-28T21:14:43Z</time>
      </trkpt>
      <trkpt lat="59.3877721" lon="17.9089543">
        <ele>0.8</ele>
        <time>2011-11-28T21:14:48Z</time>
      </trkpt>
      <trkpt lat="59.3877484" lon="17.9090221">
        <ele>1</ele>
        <time>2011-11-28T21:14:49Z</time>
      </trkpt>
      <trkpt lat="59.3876495" lon="17.909259">
        <ele>3</ele>
        <time>2011-11-28T21:14:53Z</time>
      </trkpt>
      <trkpt lat="59.3875842" lon="17.9094673">
        <ele>2.8</ele>
        <time>2011-11-28T21:14:56Z</time>
      </trkpt>
      <trkpt lat="59.3875397" lon="17.9096044">
        <ele>2.6</ele>
        <time>2011-11-28T21:14:58Z</time>
      </trkpt>
      <trkpt lat="59.3874317" lon="17.9099086">
        <ele>2.4</ele>
        <time>2011-11-28T21:15:03Z</time>
      </trkpt>
      <trkpt lat="59.3873306" lon="17.9102769">
        <ele>3</ele>
        <time>2011-11-28T21:15:09Z</time>
      </trkpt>
      <trkpt lat="59.3872714" lon="17.910679">
        <ele>2.8</ele>
        <time>2011-11-28T21:15:15Z</time>
      </trkpt>
      <trkpt lat="59.3872273" lon="17.9110214">
        <ele>2.8</ele>
        <time>2011-11-28T21:15:20Z</time>
      </trkpt>
      <trkpt lat="59.3872169" lon="17.9114">
        <ele>3.4</ele>
        <time>2011-11-28T21:15:26Z</time>
      </trkpt>
      <trkpt lat="59.3871962" lon="17.911818">
        <ele>5.2</ele>
        <time>2011-11-28T21:15:32Z</time>
      </trkpt>
      <trkpt lat="59.3871797" lon="17.912178">
        <ele>6.8</ele>
        <time>2011-11-28T21:15:37Z</time>
      </trkpt>
      <trkpt lat="59.3871625" lon="17.9125278">
        <ele>6.6</ele>
        <time>2011-11-28T21:15:42Z</time>
      </trkpt>
      <trkpt lat="59.387147" lon="17.9129062">
        <ele>5.2</ele>
        <time>2011-11-28T21:15:48Z</time>
      </trkpt>
      <trkpt lat="59.3871377" lon="17.9133058">
        <ele>3</ele>
        <time>2011-11-28T21:15:55Z</time>
      </trkpt>
      <trkpt lat="59.3871651" lon="17.9136688">
        <ele>4.2</ele>
        <time>2011-11-28T21:16:01Z</time>
      </trkpt>
      <trkpt lat="59.3872131" lon="17.9140558">
        <ele>5.6</ele>
        <time>2011-11-28T21:16:07Z</time>
      </trkpt>
      <trkpt lat="59.3872831" lon="17.9144369">
        <ele>6</ele>
        <time>2011-11-28T21:16:13Z</time>
      </trkpt>
      <trkpt lat="59.3873628" lon="17.914824">
        <ele>4.4</ele>
        <time>2011-11-28T21:16:19Z</time>
      </trkpt>
      <trkpt lat="59.3874268" lon="17.9151902">
        <ele>6.4</ele>
        <time>2011-11-28T21:16:25Z</time>
      </trkpt>
      <trkpt lat="59.3874934" lon="17.9155487">
        <ele>8.6</ele>
        <time>2011-11-28T21:16:31Z</time>
      </trkpt>
      <trkpt lat="59.3876109" lon="17.9158708">
        <ele>7.2</ele>
        <time>2011-11-28T21:16:38Z</time>
      </trkpt>
      <trkpt lat="59.3877937" lon="17.9159966">
        <ele>4.4</ele>
        <time>2011-11-28T21:16:45Z</time>
      </trkpt>
      <trkpt lat="59.3879551" lon="17.9161356">
        <ele>1</ele>
        <time>2011-11-28T21:16:52Z</time>
      </trkpt>
      <trkpt lat="59.3881303" lon="17.916267">
        <ele>0</ele>
        <time>2011-11-28T21:16:58Z</time>
      </trkpt>
      <trkpt lat="59.388302" lon="17.916403">
        <ele>0</ele>
        <time>2011-11-28T21:17:04Z</time>
      </trkpt>
      <trkpt lat="59.3884695" lon="17.9165151">
        <ele>0</ele>
        <time>2011-11-28T21:17:09Z</time>
      </trkpt>
      <trkpt lat="59.3886756" lon="17.916667">
        <ele>0</ele>
        <time>2011-11-28T21:17:16Z</time>
      </trkpt>
      <trkpt lat="59.3888642" lon="17.9168085">
        <ele>0</ele>
        <time>2011-11-28T21:17:23Z</time>
      </trkpt>
      <trkpt lat="59.3890311" lon="17.9169689">
        <ele>0.8</ele>
        <time>2011-11-28T21:17:29Z</time>
      </trkpt>
      <trkpt lat="59.3892178" lon="17.9171172">
        <ele>1</ele>
        <time>2011-11-28T21:17:36Z</time>
      </trkpt>
      <trkpt lat="59.3894019" lon="17.9172525">
        <ele>1.4</ele>
        <time>2011-11-28T21:17:42Z</time>
      </trkpt>
      <trkpt lat="59.3895926" lon="17.9173809">
        <ele>0.8</ele>
        <time>2011-11-28T21:17:48Z</time>
      </trkpt>
      <trkpt lat="59.3897706" lon="17.9175119">
        <ele>0</ele>
        <time>2011-11-28T21:17:54Z</time>
      </trkpt>
      <trkpt lat="59.3899199" lon="17.917687">
        <ele>3.8</ele>
        <time>2011-11-28T21:18:00Z</time>
      </trkpt>
      <trkpt lat="59.3900771" lon="17.9179259">
        <ele>5.2</ele>
        <time>2011-11-28T21:18:06Z</time>
      </trkpt>
      <trkpt lat="59.390243" lon="17.9181086">
        <ele>7</ele>
        <time>2011-11-28T21:18:12Z</time>
      </trkpt>
      <trkpt lat="59.390426" lon="17.9182644">
        <ele>8</ele>
        <time>2011-11-28T21:18:20Z</time>
      </trkpt>
      <trkpt lat="59.390602" lon="17.9184193">
        <ele>7.2</ele>
        <time>2011-11-28T21:18:28Z</time>
      </trkpt>
      <trkpt lat="59.3907688" lon="17.9185336">
        <ele>4.8</ele>
        <time>2011-11-28T21:18:35Z</time>
      </trkpt>
      <trkpt lat="59.3909498" lon="17.9186396">
        <ele>4.4</ele>
        <time>2011-11-28T21:18:42Z</time>
      </trkpt>
      <trkpt lat="59.3911354" lon="17.9187232">
        <ele>5.4</ele>
        <time>2011-11-28T21:18:49Z</time>
      </trkpt>
      <trkpt lat="59.3913113" lon="17.9188074">
        <ele>6.2</ele>
        <time>2011-11-28T21:18:55Z</time>
      </trkpt>
      <trkpt lat="59.3914842" lon="17.9189514">
        <ele>6.6</ele>
        <time>2011-11-28T21:19:00Z</time>
      </trkpt>
      <trkpt lat="59.3916858" lon="17.9191364">
        <ele>6</ele>
        <time>2011-11-28T21:19:05Z</time>
      </trkpt>
      <trkpt lat="59.3917261" lon="17.9191794">
        <ele>5.6</ele>
        <time>2011-11-28T21:19:06Z</time>
      </trkpt>
      <trkpt lat="59.3918401" lon="17.9193758">
        <ele>4.8</ele>
        <time>2011-11-28T21:19:09Z</time>
      </trkpt>
      <trkpt lat="59.3919306" lon="17.9195766">
        <ele>4.4</ele>
        <time>2011-11-28T21:19:12Z</time>
      </trkpt>
      <trkpt lat="59.3919834" lon="17.9196972">
        <ele>4.4</ele>
        <time>2011-11-28T21:19:14Z</time>
      </trkpt>
      <trkpt lat="59.3920533" lon="17.9198584">
        <ele>5.2</ele>
        <time>2011-11-28T21:19:17Z</time>
      </trkpt>
      <trkpt lat="59.39212" lon="17.9199921">
        <ele>5.2</ele>
        <time>2011-11-28T21:19:20Z</time>
      </trkpt>
      <trkpt lat="59.3921483" lon="17.9200466">
        <ele>5.2</ele>
        <time>2011-11-28T21:19:21Z</time>
      </trkpt>
      <trkpt lat="59.392259" lon="17.9202885">
        <ele>4</ele>
        <time>2011-11-28T21:19:26Z</time>
      </trkpt>
      <trkpt lat="59.3923728" lon="17.9205989">
        <ele>0</ele>
        <time>2011-11-28T21:19:33Z</time>
      </trkpt>
      <trkpt lat="59.3924869" lon="17.920904">
        <ele>0</ele>
        <time>2011-11-28T21:19:40Z</time>
      </trkpt>
      <trkpt lat="59.3926192" lon="17.9211775">
        <ele>0</ele>
        <time>2011-11-28T21:19:49Z</time>
      </trkpt>
      <trkpt lat="59.3925347" lon="17.9209475">
        <ele>3.8</ele>
        <time>2011-11-28T21:20:01Z</time>
      </trkpt>
      <trkpt lat="59.392412" lon="17.9206916">
        <ele>4.6</ele>
        <time>2011-11-28T21:20:08Z</time>
      </trkpt>
      <trkpt lat="59.3922949" lon="17.9204318">
        <ele>4.2</ele>
        <time>2011-11-28T21:20:13Z</time>
      </trkpt>
      <trkpt lat="59.392154" lon="17.9201471">
        <ele>4</ele>
        <time>2011-11-28T21:20:18Z</time>
      </trkpt>
      <trkpt lat="59.3920095" lon="17.9198522">
        <ele>4.8</ele>
        <time>2011-11-28T21:20:23Z</time>
      </trkpt>
      <trkpt lat="59.391951" lon="17.9197457">
        <ele>5.2</ele>
        <time>2011-11-28T21:20:25Z</time>
      </trkpt>
      <trkpt lat="59.3918615" lon="17.9195668">
        <ele>6.2</ele>
        <time>2011-11-28T21:20:29Z</time>
      </trkpt>
      <trkpt lat="59.39172" lon="17.9192823">
        <ele>7.6</ele>
        <time>2011-11-28T21:20:36Z</time>
      </trkpt>
      <trkpt lat="59.391551" lon="17.9190769">
        <ele>9.4</ele>
        <time>2011-11-28T21:20:44Z</time>
      </trkpt>
      <trkpt lat="59.3913646" lon="17.9189471">
        <ele>9.2</ele>
        <time>2011-11-28T21:20:52Z</time>
      </trkpt>
      <trkpt lat="59.3913366" lon="17.9189327">
        <ele>9.6</ele>
        <time>2011-11-28T21:20:53Z</time>
      </trkpt>
      <trkpt lat="59.3911732" lon="17.9188146">
        <ele>9.4</ele>
        <time>2011-11-28T21:21:00Z</time>
      </trkpt>
      <trkpt lat="59.391041" lon="17.9187479">
        <ele>9</ele>
        <time>2011-11-28T21:21:05Z</time>
      </trkpt>
      <trkpt lat="59.3909848" lon="17.9187127">
        <ele>9.6</ele>
        <time>2011-11-28T21:21:07Z</time>
      </trkpt>
      <trkpt lat="59.3908011" lon="17.9186149">
        <ele>8.8</ele>
        <time>2011-11-28T21:21:12Z</time>
      </trkpt>
      <trkpt lat="59.3906009" lon="17.9184609">
        <ele>9</ele>
        <time>2011-11-28T21:21:17Z</time>
      </trkpt>
      <trkpt lat="59.3904395" lon="17.9183148">
        <ele>8.8</ele>
        <time>2011-11-28T21:21:21Z</time>
      </trkpt>
      <trkpt lat="59.3903514" lon="17.9182536">
        <ele>7.8</ele>
        <time>2011-11-28T21:21:23Z</time>
      </trkpt>
      <trkpt lat="59.390261" lon="17.9181748">
        <ele>6.8</ele>
        <time>2011-11-28T21:21:25Z</time>
      </trkpt>
      <trkpt lat="59.3900823" lon="17.9179876">
        <ele>6.6</ele>
        <time>2011-11-28T21:21:29Z</time>
      </trkpt>
      <trkpt lat="59.3900047" lon="17.9179104">
        <ele>6.2</ele>
        <time>2011-11-28T21:21:31Z</time>
      </trkpt>
      <trkpt lat="59.3898889" lon="17.9177859">
        <ele>5.8</ele>
        <time>2011-11-28T21:21:34Z</time>
      </trkpt>
      <trkpt lat="59.3898126" lon="17.9176967">
        <ele>5.4</ele>
        <time>2011-11-28T21:21:36Z</time>
      </trkpt>
      <trkpt lat="59.3897339" lon="17.9176019">
        <ele>5</ele>
        <time>2011-11-28T21:21:38Z</time>
      </trkpt>
      <trkpt lat="59.3895277" lon="17.9173866">
        <ele>3.8</ele>
        <time>2011-11-28T21:21:43Z</time>
      </trkpt>
      <trkpt lat="59.3894447" lon="17.9172999">
        <ele>3.4</ele>
        <time>2011-11-28T21:21:45Z</time>
      </trkpt>
      <trkpt lat="59.3893179" lon="17.9172173">
        <ele>3.2</ele>
        <time>2011-11-28T21:21:48Z</time>
      </trkpt>
      <trkpt lat="59.389226" lon="17.9171683">
        <ele>2.4</ele>
        <time>2011-11-28T21:21:50Z</time>
      </trkpt>
      <trkpt lat="59.3891849" lon="17.9171338">
        <ele>2.6</ele>
        <time>2011-11-28T21:21:51Z</time>
      </trkpt>
      <trkpt lat="59.3891395" lon="17.9171013">
        <ele>2.4</ele>
        <time>2011-11-28T21:21:52Z</time>
      </trkpt>
      <trkpt lat="59.3889691" lon="17.916996">
        <ele>1.4</ele>
        <time>2011-11-28T21:21:56Z</time>
      </trkpt>
      <trkpt lat="59.3887883" lon="17.9168691">
        <ele>1.6</ele>
        <time>2011-11-28T21:22:00Z</time>
      </trkpt>
      <trkpt lat="59.3886083" lon="17.9167417">
        <ele>0</ele>
        <time>2011-11-28T21:22:04Z</time>
      </trkpt>
      <trkpt lat="59.3885592" lon="17.9167044">
        <ele>0</ele>
        <time>2011-11-28T21:22:05Z</time>
      </trkpt>
      <trkpt lat="59.3884371" lon="17.9165573">
        <ele>0</ele>
        <time>2011-11-28T21:22:08Z</time>
      </trkpt>
      <trkpt lat="59.3883475" lon="17.916491">
        <ele>0</ele>
        <time>2011-11-28T21:22:10Z</time>
      </trkpt>
      <trkpt lat="59.3882612" lon="17.9164245">
        <ele>0</ele>
        <time>2011-11-28T21:22:12Z</time>
      </trkpt>
      <trkpt lat="59.3881836" lon="17.9163494">
        <ele>0</ele>
        <time>2011-11-28T21:22:14Z</time>
      </trkpt>
      <trkpt lat="59.3880928" lon="17.9162764">
        <ele>0</ele>
        <time>2011-11-28T21:22:16Z</time>
      </trkpt>
      <trkpt lat="59.388045" lon="17.9162489">
        <ele>0</ele>
        <time>2011-11-28T21:22:17Z</time>
      </trkpt>
      <trkpt lat="59.3879041" lon="17.9161677">
        <ele>0</ele>
        <time>2011-11-28T21:22:20Z</time>
      </trkpt>
      <trkpt lat="59.3878287" lon="17.916096">
        <ele>0</ele>
        <time>2011-11-28T21:22:22Z</time>
      </trkpt>
      <trkpt lat="59.3877069" lon="17.9159888">
        <ele>0</ele>
        <time>2011-11-28T21:22:25Z</time>
      </trkpt>
      <trkpt lat="59.3875809" lon="17.9158808">
        <ele>0</ele>
        <time>2011-11-28T21:22:28Z</time>
      </trkpt>
      <trkpt lat="59.3875453" lon="17.9158327">
        <ele>0</ele>
        <time>2011-11-28T21:22:29Z</time>
      </trkpt>
      <trkpt lat="59.387492" lon="17.9157287">
        <ele>0</ele>
        <time>2011-11-28T21:22:31Z</time>
      </trkpt>
      <trkpt lat="59.3874468" lon="17.9154865">
        <ele>0</ele>
        <time>2011-11-28T21:22:35Z</time>
      </trkpt>
      <trkpt lat="59.3874364" lon="17.9154149">
        <ele>0.2</ele>
        <time>2011-11-28T21:22:36Z</time>
      </trkpt>
      <trkpt lat="59.3873783" lon="17.915073">
        <ele>1.4</ele>
        <time>2011-11-28T21:22:41Z</time>
      </trkpt>
      <trkpt lat="59.3873245" lon="17.9147155">
        <ele>2.6</ele>
        <time>2011-11-28T21:22:46Z</time>
      </trkpt>
      <trkpt lat="59.3872845" lon="17.9143433">
        <ele>2</ele>
        <time>2011-11-28T21:22:51Z</time>
      </trkpt>
      <trkpt lat="59.3872261" lon="17.9140002">
        <ele>2.2</ele>
        <time>2011-11-28T21:22:56Z</time>
      </trkpt>
      <trkpt lat="59.3871525" lon="17.9136068">
        <ele>1.2</ele>
        <time>2011-11-28T21:23:03Z</time>
      </trkpt>
      <trkpt lat="59.387119" lon="17.9132104">
        <ele>0</ele>
        <time>2011-11-28T21:23:10Z</time>
      </trkpt>
      <trkpt lat="59.3871346" lon="17.9128729">
        <ele>0</ele>
        <time>2011-11-28T21:23:14Z</time>
      </trkpt>
      <trkpt lat="59.387166" lon="17.9124822">
        <ele>0</ele>
        <time>2011-11-28T21:23:18Z</time>
      </trkpt>
      <trkpt lat="59.3871774" lon="17.9121975">
        <ele>0</ele>
        <time>2011-11-28T21:23:21Z</time>
      </trkpt>
      <trkpt lat="59.3871786" lon="17.9121035">
        <ele>0</ele>
        <time>2011-11-28T21:23:22Z</time>
      </trkpt>
      <trkpt lat="59.3871859" lon="17.9117049">
        <ele>0</ele>
        <time>2011-11-28T21:23:27Z</time>
      </trkpt>
      <trkpt lat="59.3871914" lon="17.9116439">
        <ele>0</ele>
        <time>2011-11-28T21:23:28Z</time>
      </trkpt>
      <trkpt lat="59.3871942" lon="17.9115863">
        <ele>0</ele>
        <time>2011-11-28T21:23:29Z</time>
      </trkpt>
      <trkpt lat="59.3872203" lon="17.911329">
        <ele>0</ele>
        <time>2011-11-28T21:23:33Z</time>
      </trkpt>
      <trkpt lat="59.387248" lon="17.9109608">
        <ele>1.2</ele>
        <time>2011-11-28T21:23:39Z</time>
      </trkpt>
      <trkpt lat="59.3872572" lon="17.9105784">
        <ele>2.2</ele>
        <time>2011-11-28T21:23:45Z</time>
      </trkpt>
      <trkpt lat="59.3873122" lon="17.9102413">
        <ele>2</ele>
        <time>2011-11-28T21:23:50Z</time>
      </trkpt>
      <trkpt lat="59.3873955" lon="17.90991">
        <ele>1.4</ele>
        <time>2011-11-28T21:23:56Z</time>
      </trkpt>
      <trkpt lat="59.3874871" lon="17.9095951">
        <ele>1.4</ele>
        <time>2011-11-28T21:24:02Z</time>
      </trkpt>
      <trkpt lat="59.3876202" lon="17.9092713">
        <ele>2.2</ele>
        <time>2011-11-28T21:24:08Z</time>
      </trkpt>
      <trkpt lat="59.3877181" lon="17.9089685">
        <ele>0.8</ele>
        <time>2011-11-28T21:24:13Z</time>
      </trkpt>
      <trkpt lat="59.3878266" lon="17.9086001">
        <ele>1.8</ele>
        <time>2011-11-28T21:24:19Z</time>
      </trkpt>
      <trkpt lat="59.3878784" lon="17.9082352">
        <ele>3.8</ele>
        <time>2011-11-28T21:24:25Z</time>
      </trkpt>
      <trkpt lat="59.3879121" lon="17.9078873">
        <ele>6.8</ele>
        <time>2011-11-28T21:24:31Z</time>
      </trkpt>
      <trkpt lat="59.3879535" lon="17.9075077">
        <ele>7.6</ele>
        <time>2011-11-28T21:24:38Z</time>
      </trkpt>
      <trkpt lat="59.3880074" lon="17.9071573">
        <ele>5</ele>
        <time>2011-11-28T21:24:45Z</time>
      </trkpt>
      <trkpt lat="59.3881235" lon="17.9068399">
        <ele>4.4</ele>
        <time>2011-11-28T21:24:52Z</time>
      </trkpt>
      <trkpt lat="59.3882296" lon="17.906512">
        <ele>4.6</ele>
        <time>2011-11-28T21:24:58Z</time>
      </trkpt>
      <trkpt lat="59.3883393" lon="17.9062052">
        <ele>2.4</ele>
        <time>2011-11-28T21:25:04Z</time>
      </trkpt>
      <trkpt lat="59.3884529" lon="17.905898">
        <ele>4.4</ele>
        <time>2011-11-28T21:25:10Z</time>
      </trkpt>
      <trkpt lat="59.3885471" lon="17.9056053">
        <ele>5</ele>
        <time>2011-11-28T21:25:16Z</time>
      </trkpt>
      <trkpt lat="59.3886568" lon="17.9052922">
        <ele>3.8</ele>
        <time>2011-11-28T21:25:22Z</time>
      </trkpt>
      <trkpt lat="59.3887733" lon="17.9049393">
        <ele>3.8</ele>
        <time>2011-11-28T21:25:29Z</time>
      </trkpt>
      <trkpt lat="59.3888407" lon="17.9047404">
        <ele>4.4</ele>
        <time>2011-11-28T21:25:33Z</time>
      </trkpt>
      <trkpt lat="59.3888726" lon="17.9046416">
        <ele>4.6</ele>
        <time>2011-11-28T21:25:35Z</time>
      </trkpt>
      <trkpt lat="59.3889802" lon="17.9042892">
        <ele>7.6</ele>
        <time>2011-11-28T21:25:42Z</time>
      </trkpt>
      <trkpt lat="59.389079" lon="17.9039747">
        <ele>8</ele>
        <time>2011-11-28T21:25:48Z</time>
      </trkpt>
      <trkpt lat="59.3891863" lon="17.9036645">
        <ele>9.2</ele>
        <time>2011-11-28T21:25:54Z</time>
      </trkpt>
      <trkpt lat="59.3892895" lon="17.903375">
        <ele>11</ele>
        <time>2011-11-28T21:26:00Z</time>
      </trkpt>
      <trkpt lat="59.389392" lon="17.9030479">
        <ele>12.6</ele>
        <time>2011-11-28T21:26:06Z</time>
      </trkpt>
      <trkpt lat="59.3894879" lon="17.9027429">
        <ele>13.2</ele>
        <time>2011-11-28T21:26:12Z</time>
      </trkpt>
      <trkpt lat="59.389597" lon="17.9024275">
        <ele>13.4</ele>
        <time>2011-11-28T21:26:19Z</time>
      </trkpt>
      <trkpt lat="59.3896959" lon="17.9021374">
        <ele>14</ele>
        <time>2011-11-28T21:26:26Z</time>
      </trkpt>
      <trkpt lat="59.3897867" lon="17.9018115">
        <ele>14.2</ele>
        <time>2011-11-28T21:26:33Z</time>
      </trkpt>
      <trkpt lat="59.3898708" lon="17.9014438">
        <ele>14</ele>
        <time>2011-11-28T21:26:40Z</time>
      </trkpt>
      <trkpt lat="59.3899375" lon="17.9010951">
        <ele>13.6</ele>
        <time>2011-11-28T21:26:46Z</time>
      </trkpt>
      <trkpt lat="59.3900126" lon="17.9007277">
        <ele>13</ele>
        <time>2011-11-28T21:26:52Z</time>
      </trkpt>
      <trkpt lat="59.3900766" lon="17.9003927">
        <ele>13</ele>
        <time>2011-11-28T21:26:57Z</time>
      </trkpt>
      <trkpt lat="59.3901525" lon="17.9000104">
        <ele>12.4</ele>
        <time>2011-11-28T21:27:03Z</time>
      </trkpt>
      <trkpt lat="59.3902435" lon="17.8996862">
        <ele>12.8</ele>
        <time>2011-11-28T21:27:09Z</time>
      </trkpt>
      <trkpt lat="59.3903358" lon="17.8993824">
        <ele>11.8</ele>
        <time>2011-11-28T21:27:14Z</time>
      </trkpt>
      <trkpt lat="59.3904419" lon="17.8990336">
        <ele>10.4</ele>
        <time>2011-11-28T21:27:20Z</time>
      </trkpt>
      <trkpt lat="59.390539" lon="17.8987026">
        <ele>10.2</ele>
        <time>2011-11-28T21:27:26Z</time>
      </trkpt>
      <trkpt lat="59.3906393" lon="17.8983807">
        <ele>10</ele>
        <time>2011-11-28T21:27:32Z</time>
      </trkpt>
      <trkpt lat="59.3907352" lon="17.8980551">
        <ele>8.2</ele>
        <time>2011-11-28T21:27:38Z</time>
      </trkpt>
      <trkpt lat="59.3908309" lon="17.8976919">
        <ele>8.4</ele>
        <time>2011-11-28T21:27:44Z</time>
      </trkpt>
      <trkpt lat="59.3909282" lon="17.8973239">
        <ele>8</ele>
        <time>2011-11-28T21:27:50Z</time>
      </trkpt>
      <trkpt lat="59.3910169" lon="17.8969952">
        <ele>10.2</ele>
        <time>2011-11-28T21:27:56Z</time>
      </trkpt>
      <trkpt lat="59.3911109" lon="17.8966905">
        <ele>9.8</ele>
        <time>2011-11-28T21:28:02Z</time>
      </trkpt>
      <trkpt lat="59.3912046" lon="17.8963609">
        <ele>10.6</ele>
        <time>2011-11-28T21:28:08Z</time>
      </trkpt>
      <trkpt lat="59.3912963" lon="17.8960072">
        <ele>12</ele>
        <time>2011-11-28T21:28:14Z</time>
      </trkpt>
      <trkpt lat="59.3913823" lon="17.8956919">
        <ele>11.8</ele>
        <time>2011-11-28T21:28:19Z</time>
      </trkpt>
      <trkpt lat="59.3914687" lon="17.8953644">
        <ele>12.2</ele>
        <time>2011-11-28T21:28:24Z</time>
      </trkpt>
      <trkpt lat="59.3915812" lon="17.8950006">
        <ele>12.8</ele>
        <time>2011-11-28T21:28:30Z</time>
      </trkpt>
      <trkpt lat="59.391682" lon="17.8946326">
        <ele>10.8</ele>
        <time>2011-11-28T21:28:36Z</time>
      </trkpt>
      <trkpt lat="59.3917736" lon="17.8942914">
        <ele>9.8</ele>
        <time>2011-11-28T21:28:42Z</time>
      </trkpt>
      <trkpt lat="59.3918629" lon="17.8939653">
        <ele>11.8</ele>
        <time>2011-11-28T21:28:48Z</time>
      </trkpt>
      <trkpt lat="59.391952" lon="17.8936327">
        <ele>11.8</ele>
        <time>2011-11-28T21:28:54Z</time>
      </trkpt>
      <trkpt lat="59.3920892" lon="17.8933266">
        <ele>11.6</ele>
        <time>2011-11-28T21:29:00Z</time>
      </trkpt>
      <trkpt lat="59.3921981" lon="17.8930168">
        <ele>11.2</ele>
        <time>2011-11-28T21:29:06Z</time>
      </trkpt>
      <trkpt lat="59.3923082" lon="17.8926723">
        <ele>12.4</ele>
        <time>2011-11-28T21:29:13Z</time>
      </trkpt>
      <trkpt lat="59.3924181" lon="17.8923267">
        <ele>13.4</ele>
        <time>2011-11-28T21:29:19Z</time>
      </trkpt>
      <trkpt lat="59.3925313" lon="17.8920132">
        <ele>13.6</ele>
        <time>2011-11-28T21:29:24Z</time>
      </trkpt>
      <trkpt lat="59.3926694" lon="17.8917087">
        <ele>9.6</ele>
        <time>2011-11-28T21:29:29Z</time>
      </trkpt>
      <trkpt lat="59.392698" lon="17.8916442">
        <ele>9</ele>
        <time>2011-11-28T21:29:30Z</time>
      </trkpt>
      <trkpt lat="59.3927912" lon="17.8913784">
        <ele>6.6</ele>
        <time>2011-11-28T21:29:34Z</time>
      </trkpt>
      <trkpt lat="59.3928554" lon="17.891168">
        <ele>5</ele>
        <time>2011-11-28T21:29:37Z</time>
      </trkpt>
      <trkpt lat="59.3928713" lon="17.8910981">
        <ele>4</ele>
        <time>2011-11-28T21:29:38Z</time>
      </trkpt>
      <trkpt lat="59.392889" lon="17.8910209">
        <ele>4</ele>
        <time>2011-11-28T21:29:39Z</time>
      </trkpt>
      <trkpt lat="59.3929725" lon="17.8906545">
        <ele>1.8</ele>
        <time>2011-11-28T21:29:44Z</time>
      </trkpt>
      <trkpt lat="59.3930082" lon="17.8905008">
        <ele>1</ele>
        <time>2011-11-28T21:29:46Z</time>
      </trkpt>
      <trkpt lat="59.39306" lon="17.890277">
        <ele>0.8</ele>
        <time>2011-11-28T21:29:49Z</time>
      </trkpt>
      <trkpt lat="59.393108" lon="17.8900517">
        <ele>0.2</ele>
        <time>2011-11-28T21:29:52Z</time>
      </trkpt>
      <trkpt lat="59.3931424" lon="17.889903">
        <ele>0</ele>
        <time>2011-11-28T21:29:54Z</time>
      </trkpt>
      <trkpt lat="59.393163" lon="17.8898419">
        <ele>0</ele>
        <time>2011-11-28T21:29:55Z</time>
      </trkpt>
      <trkpt lat="59.3932748" lon="17.8896123">
        <ele>0.2</ele>
        <time>2011-11-28T21:30:00Z</time>
      </trkpt>
      <trkpt lat="59.3934217" lon="17.8893881">
        <ele>1.4</ele>
        <time>2011-11-28T21:30:06Z</time>
      </trkpt>
      <trkpt lat="59.3934413" lon="17.8893548">
        <ele>1.6</ele>
        <time>2011-11-28T21:30:07Z</time>
      </trkpt>
      <trkpt lat="59.3935667" lon="17.8891088">
        <ele>3</ele>
        <time>2011-11-28T21:30:13Z</time>
      </trkpt>
      <trkpt lat="59.3936413" lon="17.8889785">
        <ele>4.2</ele>
        <time>2011-11-28T21:30:16Z</time>
      </trkpt>
      <trkpt lat="59.3937065" lon="17.8888394">
        <ele>5.2</ele>
        <time>2011-11-28T21:30:20Z</time>
      </trkpt>
      <trkpt lat="59.3937524" lon="17.8887651">
        <ele>6.2</ele>
        <time>2011-11-28T21:30:22Z</time>
      </trkpt>
      <trkpt lat="59.3938028" lon="17.8886437">
        <ele>7</ele>
        <time>2011-11-28T21:30:31Z</time>
      </trkpt>
      <trkpt lat="59.3937231" lon="17.8889209">
        <ele>4.8</ele>
        <time>2011-11-28T21:30:37Z</time>
      </trkpt>
      <trkpt lat="59.3935883" lon="17.889222">
        <ele>2.2</ele>
        <time>2011-11-28T21:30:42Z</time>
      </trkpt>
      <trkpt lat="59.3934347" lon="17.8894783">
        <ele>1</ele>
        <time>2011-11-28T21:30:47Z</time>
      </trkpt>
      <trkpt lat="59.3933378" lon="17.8896346">
        <ele>0</ele>
        <time>2011-11-28T21:30:50Z</time>
      </trkpt>
      <trkpt lat="59.393274" lon="17.8897336">
        <ele>0</ele>
        <time>2011-11-28T21:30:52Z</time>
      </trkpt>
      <trkpt lat="59.3932156" lon="17.8898423">
        <ele>0</ele>
        <time>2011-11-28T21:30:54Z</time>
      </trkpt>
      <trkpt lat="59.3931355" lon="17.8900636">
        <ele>0</ele>
        <time>2011-11-28T21:30:58Z</time>
      </trkpt>
      <trkpt lat="59.3930583" lon="17.8904136">
        <ele>0</ele>
        <time>2011-11-28T21:31:05Z</time>
      </trkpt>
      <trkpt lat="59.3930461" lon="17.8906304">
        <ele>0</ele>
        <time>2011-11-28T21:31:09Z</time>
      </trkpt>
      <trkpt lat="59.393015" lon="17.8907496">
        <ele>0</ele>
        <time>2011-11-28T21:31:11Z</time>
      </trkpt>
      <trkpt lat="59.3929181" lon="17.8911198">
        <ele>0</ele>
        <time>2011-11-28T21:31:18Z</time>
      </trkpt>
      <trkpt lat="59.3928249" lon="17.8914901">
        <ele>0</ele>
        <time>2011-11-28T21:31:26Z</time>
      </trkpt>
      <trkpt lat="59.3927183" lon="17.8917988">
        <ele>2</ele>
        <time>2011-11-28T21:31:34Z</time>
      </trkpt>
      <trkpt lat="59.3926045" lon="17.8920999">
        <ele>4.2</ele>
        <time>2011-11-28T21:31:41Z</time>
      </trkpt>
      <trkpt lat="59.3925372" lon="17.892232">
        <ele>4.8</ele>
        <time>2011-11-28T21:31:45Z</time>
      </trkpt>
      <trkpt lat="59.3924773" lon="17.8923594">
        <ele>6</ele>
        <time>2011-11-28T21:31:49Z</time>
      </trkpt>
      <trkpt lat="59.3923725" lon="17.8926438">
        <ele>6.8</ele>
        <time>2011-11-28T21:31:56Z</time>
      </trkpt>
      <trkpt lat="59.392356" lon="17.8926905">
        <ele>6.6</ele>
        <time>2011-11-28T21:31:57Z</time>
      </trkpt>
      <trkpt lat="59.392267" lon="17.8929563">
        <ele>5.8</ele>
        <time>2011-11-28T21:32:04Z</time>
      </trkpt>
      <trkpt lat="59.3922565" lon="17.8929977">
        <ele>5.8</ele>
        <time>2011-11-28T21:32:05Z</time>
      </trkpt>
      <trkpt lat="59.3921669" lon="17.893273">
        <ele>5.4</ele>
        <time>2011-11-28T21:32:11Z</time>
      </trkpt>
      <trkpt lat="59.3920339" lon="17.89356">
        <ele>5.6</ele>
        <time>2011-11-28T21:32:19Z</time>
      </trkpt>
      <trkpt lat="59.3919314" lon="17.8938911">
        <ele>5.8</ele>
        <time>2011-11-28T21:32:27Z</time>
      </trkpt>
      <trkpt lat="59.3918492" lon="17.8941954">
        <ele>6.4</ele>
        <time>2011-11-28T21:32:33Z</time>
      </trkpt>
      <trkpt lat="59.3917495" lon="17.8945423">
        <ele>5.8</ele>
        <time>2011-11-28T21:32:39Z</time>
      </trkpt>
      <trkpt lat="59.3916499" lon="17.8948973">
        <ele>5</ele>
        <time>2011-11-28T21:32:45Z</time>
      </trkpt>
      <trkpt lat="59.3915718" lon="17.8952164">
        <ele>4.6</ele>
        <time>2011-11-28T21:32:50Z</time>
      </trkpt>
      <trkpt lat="59.3914671" lon="17.8955983">
        <ele>4.2</ele>
        <time>2011-11-28T21:32:56Z</time>
      </trkpt>
      <trkpt lat="59.3913812" lon="17.8959321">
        <ele>3.8</ele>
        <time>2011-11-28T21:33:01Z</time>
      </trkpt>
      <trkpt lat="59.3912879" lon="17.896279">
        <ele>5</ele>
        <time>2011-11-28T21:33:06Z</time>
      </trkpt>
      <trkpt lat="59.3911911" lon="17.8966251">
        <ele>7</ele>
        <time>2011-11-28T21:33:11Z</time>
      </trkpt>
      <trkpt lat="59.3910874" lon="17.8969946">
        <ele>6.8</ele>
        <time>2011-11-28T21:33:16Z</time>
      </trkpt>
      <trkpt lat="59.391047" lon="17.8971369">
        <ele>6.2</ele>
        <time>2011-11-28T21:33:18Z</time>
      </trkpt>
      <trkpt lat="59.390989" lon="17.8973705">
        <ele>5</ele>
        <time>2011-11-28T21:33:21Z</time>
      </trkpt>
      <trkpt lat="59.3909692" lon="17.8974479">
        <ele>4.6</ele>
        <time>2011-11-28T21:33:22Z</time>
      </trkpt>
      <trkpt lat="59.3908892" lon="17.8977448">
        <ele>4.4</ele>
        <time>2011-11-28T21:33:26Z</time>
      </trkpt>
      <trkpt lat="59.3908524" lon="17.8978814">
        <ele>4.4</ele>
        <time>2011-11-28T21:33:28Z</time>
      </trkpt>
      <trkpt lat="59.3907972" lon="17.8980762">
        <ele>5.2</ele>
        <time>2011-11-28T21:33:31Z</time>
      </trkpt>
      <trkpt lat="59.3907052" lon="17.8983788">
        <ele>5.4</ele>
        <time>2011-11-28T21:33:36Z</time>
      </trkpt>
      <trkpt lat="59.3906039" lon="17.8987417">
        <ele>5.6</ele>
        <time>2011-11-28T21:33:42Z</time>
      </trkpt>
      <trkpt lat="59.3905145" lon="17.8990493">
        <ele>5.8</ele>
        <time>2011-11-28T21:33:47Z</time>
      </trkpt>
      <trkpt lat="59.3904134" lon="17.8993969">
        <ele>5</ele>
        <time>2011-11-28T21:33:53Z</time>
      </trkpt>
      <trkpt lat="59.3903014" lon="17.8997319">
        <ele>5.2</ele>
        <time>2011-11-28T21:33:59Z</time>
      </trkpt>
      <trkpt lat="59.3902092" lon="17.900031">
        <ele>5.2</ele>
        <time>2011-11-28T21:34:04Z</time>
      </trkpt>
      <trkpt lat="59.3901363" lon="17.9004139">
        <ele>5.8</ele>
        <time>2011-11-28T21:34:10Z</time>
      </trkpt>
      <trkpt lat="59.3900499" lon="17.9008028">
        <ele>6.4</ele>
        <time>2011-11-28T21:34:17Z</time>
      </trkpt>
      <trkpt lat="59.3899837" lon="17.9011433">
        <ele>7</ele>
        <time>2011-11-28T21:34:23Z</time>
      </trkpt>
      <trkpt lat="59.3899026" lon="17.9015189">
        <ele>6.2</ele>
        <time>2011-11-28T21:34:30Z</time>
      </trkpt>
      <trkpt lat="59.3898167" lon="17.9018696">
        <ele>6.6</ele>
        <time>2011-11-28T21:34:37Z</time>
      </trkpt>
      <trkpt lat="59.3897323" lon="17.9021798">
        <ele>6.4</ele>
        <time>2011-11-28T21:34:43Z</time>
      </trkpt>
      <trkpt lat="59.3896297" lon="17.9025113">
        <ele>3.8</ele>
        <time>2011-11-28T21:34:49Z</time>
      </trkpt>
      <trkpt lat="59.3895301" lon="17.9028067">
        <ele>2.2</ele>
        <time>2011-11-28T21:34:54Z</time>
      </trkpt>
      <trkpt lat="59.3894184" lon="17.9031221">
        <ele>1</ele>
        <time>2011-11-28T21:34:59Z</time>
      </trkpt>
      <trkpt lat="59.3893098" lon="17.9034576">
        <ele>1</ele>
        <time>2011-11-28T21:35:05Z</time>
      </trkpt>
      <trkpt lat="59.3892139" lon="17.9037624">
        <ele>0</ele>
        <time>2011-11-28T21:35:10Z</time>
      </trkpt>
      <trkpt lat="59.3890996" lon="17.9040504">
        <ele>0</ele>
        <time>2011-11-28T21:35:16Z</time>
      </trkpt>
      <trkpt lat="59.3889849" lon="17.9043912">
        <ele>0</ele>
        <time>2011-11-28T21:35:22Z</time>
      </trkpt>
      <trkpt lat="59.3888807" lon="17.9047575">
        <ele>0</ele>
        <time>2011-11-28T21:35:28Z</time>
      </trkpt>
      <trkpt lat="59.3887859" lon="17.9050475">
        <ele>0</ele>
        <time>2011-11-28T21:35:33Z</time>
      </trkpt>
      <trkpt lat="59.3886746" lon="17.9053831">
        <ele>0</ele>
        <time>2011-11-28T21:35:39Z</time>
      </trkpt>
      <trkpt lat="59.3885443" lon="17.9057184">
        <ele>0</ele>
        <time>2011-11-28T21:35:45Z</time>
      </trkpt>
      <trkpt lat="59.3884317" lon="17.9060684">
        <ele>0</ele>
        <time>2011-11-28T21:35:51Z</time>
      </trkpt>
      <trkpt lat="59.3883278" lon="17.9063592">
        <ele>0</ele>
        <time>2011-11-28T21:35:57Z</time>
      </trkpt>
      <trkpt lat="59.3882245" lon="17.9066721">
        <ele>0</ele>
        <time>2011-11-28T21:36:03Z</time>
      </trkpt>
      <trkpt lat="59.3881068" lon="17.9070177">
        <ele>2</ele>
        <time>2011-11-28T21:36:09Z</time>
      </trkpt>
      <trkpt lat="59.3880219" lon="17.9073143">
        <ele>3</ele>
        <time>2011-11-28T21:36:14Z</time>
      </trkpt>
      <trkpt lat="59.3879716" lon="17.9077087">
        <ele>1.6</ele>
        <time>2011-11-28T21:36:20Z</time>
      </trkpt>
      <trkpt lat="59.3879486" lon="17.9080692">
        <ele>0.8</ele>
        <time>2011-11-28T21:36:25Z</time>
      </trkpt>
      <trkpt lat="59.3878868" lon="17.9084606">
        <ele>0</ele>
        <time>2011-11-28T21:36:30Z</time>
      </trkpt>
      <trkpt lat="59.3878461" lon="17.9086887">
        <ele>0</ele>
        <time>2011-11-28T21:36:33Z</time>
      </trkpt>
      <trkpt lat="59.3878226" lon="17.9088204">
        <ele>0</ele>
        <time>2011-11-28T21:36:35Z</time>
      </trkpt>
      <trkpt lat="59.3877918" lon="17.9089644">
        <ele>0</ele>
        <time>2011-11-28T21:36:37Z</time>
      </trkpt>
      <trkpt lat="59.3877282" lon="17.9091536">
        <ele>0</ele>
        <time>2011-11-28T21:36:40Z</time>
      </trkpt>
      <trkpt lat="59.3876091" lon="17.9094548">
        <ele>0</ele>
        <time>2011-11-28T21:36:45Z</time>
      </trkpt>
      <trkpt lat="59.3874974" lon="17.9097673">
        <ele>0</ele>
        <time>2011-11-28T21:36:50Z</time>
      </trkpt>
      <trkpt lat="59.3873982" lon="17.9100514">
        <ele>0</ele>
        <time>2011-11-28T21:36:55Z</time>
      </trkpt>
      <trkpt lat="59.3873055" lon="17.9104231">
        <ele>0</ele>
        <time>2011-11-28T21:37:01Z</time>
      </trkpt>
      <trkpt lat="59.3872764" lon="17.9107779">
        <ele>0</ele>
        <time>2011-11-28T21:37:07Z</time>
      </trkpt>
      <trkpt lat="59.3872463" lon="17.9111247">
        <ele>0</ele>
        <time>2011-11-28T21:37:13Z</time>
      </trkpt>
      <trkpt lat="59.3872191" lon="17.9114704">
        <ele>0</ele>
        <time>2011-11-28T21:37:18Z</time>
      </trkpt>
      <trkpt lat="59.3871892" lon="17.9118313">
        <ele>1.8</ele>
        <time>2011-11-28T21:37:23Z</time>
      </trkpt>
      <trkpt lat="59.3871842" lon="17.912198">
        <ele>4</ele>
        <time>2011-11-28T21:37:28Z</time>
      </trkpt>
      <trkpt lat="59.3871802" lon="17.9126246">
        <ele>5.4</ele>
        <time>2011-11-28T21:37:34Z</time>
      </trkpt>
      <trkpt lat="59.3871535" lon="17.9130299">
        <ele>0.8</ele>
        <time>2011-11-28T21:37:42Z</time>
      </trkpt>
      <trkpt lat="59.3871379" lon="17.9133834">
        <ele>0</ele>
        <time>2011-11-28T21:37:50Z</time>
      </trkpt>
      <trkpt lat="59.3871407" lon="17.9134279">
        <ele>0</ele>
        <time>2011-11-28T21:37:51Z</time>
      </trkpt>
      <trkpt lat="59.3871789" lon="17.9137689">
        <ele>0</ele>
        <time>2011-11-28T21:37:57Z</time>
      </trkpt>
      <trkpt lat="59.3872429" lon="17.9141077">
        <ele>0</ele>
        <time>2011-11-28T21:38:02Z</time>
      </trkpt>
      <trkpt lat="59.3873253" lon="17.9144917">
        <ele>0</ele>
        <time>2011-11-28T21:38:08Z</time>
      </trkpt>
      <trkpt lat="59.3873587" lon="17.9148478">
        <ele>0.4</ele>
        <time>2011-11-28T21:38:13Z</time>
      </trkpt>
      <trkpt lat="59.3874208" lon="17.9151855">
        <ele>0</ele>
        <time>2011-11-28T21:38:18Z</time>
      </trkpt>
      <trkpt lat="59.3874985" lon="17.9155726">
        <ele>1.8</ele>
        <time>2011-11-28T21:38:25Z</time>
      </trkpt>
      <trkpt lat="59.3876291" lon="17.9158446">
        <ele>0.6</ele>
        <time>2011-11-28T21:38:32Z</time>
      </trkpt>
      <trkpt lat="59.3878121" lon="17.9160054">
        <ele>0</ele>
        <time>2011-11-28T21:38:40Z</time>
      </trkpt>
      <trkpt lat="59.3880072" lon="17.9161413">
        <ele>0</ele>
        <time>2011-11-28T21:38:47Z</time>
      </trkpt>
      <trkpt lat="59.3881792" lon="17.9162603">
        <ele>0</ele>
        <time>2011-11-28T21:38:52Z</time>
      </trkpt>
      <trkpt lat="59.3883674" lon="17.9163661">
        <ele>0</ele>
        <time>2011-11-28T21:38:58Z</time>
      </trkpt>
      <trkpt lat="59.3885506" lon="17.9165136">
        <ele>0.6</ele>
        <time>2011-11-28T21:39:05Z</time>
      </trkpt>
      <trkpt lat="59.3887401" lon="17.9166689">
        <ele>3.4</ele>
        <time>2011-11-28T21:39:11Z</time>
      </trkpt>
      <trkpt lat="59.3889361" lon="17.9168122">
        <ele>4.4</ele>
        <time>2011-11-28T21:39:18Z</time>
      </trkpt>
      <trkpt lat="59.3891076" lon="17.9169452">
        <ele>4.8</ele>
        <time>2011-11-28T21:39:24Z</time>
      </trkpt>
      <trkpt lat="59.3892888" lon="17.9170865">
        <ele>3.4</ele>
        <time>2011-11-28T21:39:31Z</time>
      </trkpt>
      <trkpt lat="59.3894655" lon="17.9172705">
        <ele>3.2</ele>
        <time>2011-11-28T21:39:38Z</time>
      </trkpt>
      <trkpt lat="59.3896308" lon="17.9174042">
        <ele>4</ele>
        <time>2011-11-28T21:39:44Z</time>
      </trkpt>
      <trkpt lat="59.3898187" lon="17.9175623">
        <ele>3.2</ele>
        <time>2011-11-28T21:39:51Z</time>
      </trkpt>
      <trkpt lat="59.3899727" lon="17.9177519">
        <ele>3</ele>
        <time>2011-11-28T21:39:56Z</time>
      </trkpt>
      <trkpt lat="59.3901193" lon="17.9179787">
        <ele>3</ele>
        <time>2011-11-28T21:40:01Z</time>
      </trkpt>
      <trkpt lat="59.3903089" lon="17.9181841">
        <ele>2.2</ele>
        <time>2011-11-28T21:40:08Z</time>
      </trkpt>
      <trkpt lat="59.3904871" lon="17.9183387">
        <ele>4.2</ele>
        <time>2011-11-28T21:40:16Z</time>
      </trkpt>
      <trkpt lat="59.3906594" lon="17.91847">
        <ele>4.8</ele>
        <time>2011-11-28T21:40:23Z</time>
      </trkpt>
      <trkpt lat="59.3908422" lon="17.9185635">
        <ele>5.6</ele>
        <time>2011-11-28T21:40:31Z</time>
      </trkpt>
      <trkpt lat="59.3910391" lon="17.9186548">
        <ele>6.2</ele>
        <time>2011-11-28T21:40:38Z</time>
      </trkpt>
      <trkpt lat="59.391207" lon="17.9187468">
        <ele>5.6</ele>
        <time>2011-11-28T21:40:44Z</time>
      </trkpt>
      <trkpt lat="59.3912302" lon="17.9187577">
        <ele>5.6</ele>
        <time>2011-11-28T21:40:45Z</time>
      </trkpt>
      <trkpt lat="59.3913123" lon="17.918808">
        <ele>5.8</ele>
        <time>2011-11-28T21:40:48Z</time>
      </trkpt>
      <trkpt lat="59.391406" lon="17.918881">
        <ele>6.4</ele>
        <time>2011-11-28T21:40:51Z</time>
      </trkpt>
      <trkpt lat="59.3915757" lon="17.9190172">
        <ele>6.2</ele>
        <time>2011-11-28T21:40:56Z</time>
      </trkpt>
      <trkpt lat="59.3917391" lon="17.9192068">
        <ele>5.4</ele>
        <time>2011-11-28T21:41:00Z</time>
      </trkpt>
      <trkpt lat="59.39178" lon="17.9192633">
        <ele>5.8</ele>
        <time>2011-11-28T21:41:01Z</time>
      </trkpt>
      <trkpt lat="59.3918893" lon="17.9194444">
        <ele>6.4</ele>
        <time>2011-11-28T21:41:04Z</time>
      </trkpt>
      <trkpt lat="59.3920324" lon="17.9197503">
        <ele>7.6</ele>
        <time>2011-11-28T21:41:09Z</time>
      </trkpt>
      <trkpt lat="59.3921801" lon="17.9200606">
        <ele>5.2</ele>
        <time>2011-11-28T21:41:15Z</time>
      </trkpt>
      <trkpt lat="59.3922057" lon="17.9201042">
        <ele>5.4</ele>
        <time>2011-11-28T21:41:16Z</time>
      </trkpt>
      <trkpt lat="59.3923136" lon="17.9203375">
        <ele>5.6</ele>
        <time>2011-11-28T21:41:21Z</time>
      </trkpt>
      <trkpt lat="59.3924346" lon="17.920617">
        <ele>7</ele>
        <time>2011-11-28T21:41:27Z</time>
      </trkpt>
      <trkpt lat="59.3925799" lon="17.9208871">
        <ele>11</ele>
        <time>2011-11-28T21:41:33Z</time>
      </trkpt>
      <trkpt lat="59.3926957" lon="17.9211473">
        <ele>14.2</ele>
        <time>2011-11-28T21:41:45Z</time>
      </trkpt>
      <trkpt lat="59.3926827" lon="17.9211244">
        <ele>14.8</ele>
        <time>2011-11-28T21:41:46Z</time>
      </trkpt>
      <trkpt lat="59.3925995" lon="17.9209769">
        <ele>15.6</ele>
        <time>2011-11-28T21:41:50Z</time>
      </trkpt>
      <trkpt lat="59.3925747" lon="17.9209337">
        <ele>15.6</ele>
        <time>2011-11-28T21:41:51Z</time>
      </trkpt>
      <trkpt lat="59.3924488" lon="17.9206584">
        <ele>14.4</ele>
        <time>2011-11-28T21:41:57Z</time>
      </trkpt>
      <trkpt lat="59.3923151" lon="17.9203981">
        <ele>12</ele>
        <time>2011-11-28T21:42:02Z</time>
      </trkpt>
      <trkpt lat="59.3921758" lon="17.9201121">
        <ele>10.2</ele>
        <time>2011-11-28T21:42:07Z</time>
      </trkpt>
      <trkpt lat="59.3920328" lon="17.9198364">
        <ele>10.2</ele>
        <time>2011-11-28T21:42:12Z</time>
      </trkpt>
      <trkpt lat="59.3919001" lon="17.9195747">
        <ele>10.2</ele>
        <time>2011-11-28T21:42:18Z</time>
      </trkpt>
      <trkpt lat="59.3917755" lon="17.9193203">
        <ele>10.2</ele>
        <time>2011-11-28T21:42:25Z</time>
      </trkpt>
      <trkpt lat="59.3916149" lon="17.9191095">
        <ele>11.6</ele>
        <time>2011-11-28T21:42:33Z</time>
      </trkpt>
      <trkpt lat="59.3915236" lon="17.9190048">
        <ele>12.8</ele>
        <time>2011-11-28T21:42:38Z</time>
      </trkpt>
      <trkpt lat="59.3914562" lon="17.9189286">
        <ele>13.8</ele>
        <time>2011-11-28T21:42:42Z</time>
      </trkpt>
      <trkpt lat="59.3913711" lon="17.9188703">
        <ele>15.2</ele>
        <time>2011-11-28T21:42:46Z</time>
      </trkpt>
      <trkpt lat="59.3912734" lon="17.9188157">
        <ele>16.4</ele>
        <time>2011-11-28T21:42:50Z</time>
      </trkpt>
      <trkpt lat="59.3910937" lon="17.9187254">
        <ele>15.8</ele>
        <time>2011-11-28T21:42:57Z</time>
      </trkpt>
      <trkpt lat="59.3909077" lon="17.9186158">
        <ele>16.6</ele>
        <time>2011-11-28T21:43:04Z</time>
      </trkpt>
      <trkpt lat="59.3907405" lon="17.9185289">
        <ele>15.8</ele>
        <time>2011-11-28T21:43:09Z</time>
      </trkpt>
      <trkpt lat="59.3905475" lon="17.9184117">
        <ele>15.4</ele>
        <time>2011-11-28T21:43:14Z</time>
      </trkpt>
      <trkpt lat="59.3903491" lon="17.9182939">
        <ele>14</ele>
        <time>2011-11-28T21:43:19Z</time>
      </trkpt>
      <trkpt lat="59.3901709" lon="17.9181527">
        <ele>12.6</ele>
        <time>2011-11-28T21:43:23Z</time>
      </trkpt>
      <trkpt lat="59.389982" lon="17.9179139">
        <ele>11</ele>
        <time>2011-11-28T21:43:28Z</time>
      </trkpt>
      <trkpt lat="59.3899492" lon="17.9178604">
        <ele>11</ele>
        <time>2011-11-28T21:43:29Z</time>
      </trkpt>
      <trkpt lat="59.3898292" lon="17.917699">
        <ele>10</ele>
        <time>2011-11-28T21:43:32Z</time>
      </trkpt>
      <trkpt lat="59.3897171" lon="17.9175818">
        <ele>8.8</ele>
        <time>2011-11-28T21:43:35Z</time>
      </trkpt>
      <trkpt lat="59.3896767" lon="17.9175341">
        <ele>8.8</ele>
        <time>2011-11-28T21:43:36Z</time>
      </trkpt>
      <trkpt lat="59.3896355" lon="17.9174953">
        <ele>8.2</ele>
        <time>2011-11-28T21:43:37Z</time>
      </trkpt>
      <trkpt lat="59.389504" lon="17.9173917">
        <ele>6.8</ele>
        <time>2011-11-28T21:43:40Z</time>
      </trkpt>
      <trkpt lat="59.38942" lon="17.9173343">
        <ele>5</ele>
        <time>2011-11-28T21:43:42Z</time>
      </trkpt>
      <trkpt lat="59.3893025" lon="17.9172275">
        <ele>3.6</ele>
        <time>2011-11-28T21:43:45Z</time>
      </trkpt>
      <trkpt lat="59.3892307" lon="17.9171425">
        <ele>3</ele>
        <time>2011-11-28T21:43:47Z</time>
      </trkpt>
      <trkpt lat="59.3891941" lon="17.917109">
        <ele>2.8</ele>
        <time>2011-11-28T21:43:48Z</time>
      </trkpt>
      <trkpt lat="59.3891152" lon="17.9170379">
        <ele>2.8</ele>
        <time>2011-11-28T21:43:50Z</time>
      </trkpt>
      <trkpt lat="59.3890391" lon="17.9169871">
        <ele>4</ele>
        <time>2011-11-28T21:43:52Z</time>
      </trkpt>
      <trkpt lat="59.3889293" lon="17.9168906">
        <ele>5.6</ele>
        <time>2011-11-28T21:43:55Z</time>
      </trkpt>
      <trkpt lat="59.3888537" lon="17.9168219">
        <ele>5.8</ele>
        <time>2011-11-28T21:43:57Z</time>
      </trkpt>
      <trkpt lat="59.3887326" lon="17.9167164">
        <ele>6.4</ele>
        <time>2011-11-28T21:44:00Z</time>
      </trkpt>
      <trkpt lat="59.3886854" lon="17.9166905">
        <ele>6</ele>
        <time>2011-11-28T21:44:01Z</time>
      </trkpt>
      <trkpt lat="59.3885516" lon="17.9165909">
        <ele>5.2</ele>
        <time>2011-11-28T21:44:04Z</time>
      </trkpt>
      <trkpt lat="59.3884654" lon="17.9165172">
        <ele>5.4</ele>
        <time>2011-11-28T21:44:06Z</time>
      </trkpt>
      <trkpt lat="59.3883456" lon="17.9164177">
        <ele>4.8</ele>
        <time>2011-11-28T21:44:09Z</time>
      </trkpt>
      <trkpt lat="59.3881605" lon="17.9162971">
        <ele>4.4</ele>
        <time>2011-11-28T21:44:13Z</time>
      </trkpt>
      <trkpt lat="59.3879524" lon="17.9161619">
        <ele>2.8</ele>
        <time>2011-11-28T21:44:18Z</time>
      </trkpt>
      <trkpt lat="59.3879162" lon="17.9161279">
        <ele>3</ele>
        <time>2011-11-28T21:44:19Z</time>
      </trkpt>
      <trkpt lat="59.3877756" lon="17.9160046">
        <ele>1.8</ele>
        <time>2011-11-28T21:44:23Z</time>
      </trkpt>
      <trkpt lat="59.3877359" lon="17.9159748">
        <ele>1.2</ele>
        <time>2011-11-28T21:44:24Z</time>
      </trkpt>
      <trkpt lat="59.3876062" lon="17.9158781">
        <ele>0</ele>
        <time>2011-11-28T21:44:27Z</time>
      </trkpt>
      <trkpt lat="59.3875663" lon="17.9158341">
        <ele>0</ele>
        <time>2011-11-28T21:44:28Z</time>
      </trkpt>
      <trkpt lat="59.3875317" lon="17.9157849">
        <ele>0</ele>
        <time>2011-11-28T21:44:29Z</time>
      </trkpt>
      <trkpt lat="59.3874837" lon="17.9156">
        <ele>1.8</ele>
        <time>2011-11-28T21:44:32Z</time>
      </trkpt>
      <trkpt lat="59.3874256" lon="17.9152052">
        <ele>3</ele>
        <time>2011-11-28T21:44:38Z</time>
      </trkpt>
      <trkpt lat="59.38735" lon="17.9148074">
        <ele>4.2</ele>
        <time>2011-11-28T21:44:43Z</time>
      </trkpt>
      <trkpt lat="59.3873127" lon="17.9145775">
        <ele>4</ele>
        <time>2011-11-28T21:44:46Z</time>
      </trkpt>
      <trkpt lat="59.3873001" lon="17.9144266">
        <ele>5</ele>
        <time>2011-11-28T21:44:48Z</time>
      </trkpt>
      <trkpt lat="59.38724" lon="17.9141117">
        <ele>5.2</ele>
        <time>2011-11-28T21:44:53Z</time>
      </trkpt>
      <trkpt lat="59.3872296" lon="17.9140547">
        <ele>5.2</ele>
        <time>2011-11-28T21:44:54Z</time>
      </trkpt>
      <trkpt lat="59.3871538" lon="17.9136865">
        <ele>4.6</ele>
        <time>2011-11-28T21:45:02Z</time>
      </trkpt>
      <trkpt lat="59.3871288" lon="17.9133013">
        <ele>3.8</ele>
        <time>2011-11-28T21:45:10Z</time>
      </trkpt>
      <trkpt lat="59.3871354" lon="17.9129289">
        <ele>3.8</ele>
        <time>2011-11-28T21:45:15Z</time>
      </trkpt>
      <trkpt lat="59.3871737" lon="17.9125176">
        <ele>5.2</ele>
        <time>2011-11-28T21:45:20Z</time>
      </trkpt>
      <trkpt lat="59.3871932" lon="17.9121885">
        <ele>6.6</ele>
        <time>2011-11-28T21:45:24Z</time>
      </trkpt>
      <trkpt lat="59.3871965" lon="17.9121128">
        <ele>6.4</ele>
        <time>2011-11-28T21:45:25Z</time>
      </trkpt>
      <trkpt lat="59.3872122" lon="17.9118075">
        <ele>8.8</ele>
        <time>2011-11-28T21:45:29Z</time>
      </trkpt>
      <trkpt lat="59.387218" lon="17.9116968">
        <ele>10.4</ele>
        <time>2011-11-28T21:45:31Z</time>
      </trkpt>
      <trkpt lat="59.3872245" lon="17.9113094">
        <ele>13.2</ele>
        <time>2011-11-28T21:45:37Z</time>
      </trkpt>
      <trkpt lat="59.38724" lon="17.9109139">
        <ele>11.6</ele>
        <time>2011-11-28T21:45:44Z</time>
      </trkpt>
      <trkpt lat="59.3872401" lon="17.9108706">
        <ele>10.6</ele>
        <time>2011-11-28T21:45:45Z</time>
      </trkpt>
      <trkpt lat="59.3871654" lon="17.91067">
        <ele>9.2</ele>
        <time>2011-11-28T21:45:50Z</time>
      </trkpt>
      <trkpt lat="59.387125" lon="17.9106152">
        <ele>8.4</ele>
        <time>2011-11-28T21:45:52Z</time>
      </trkpt>
      <trkpt lat="59.3869984" lon="17.9104119">
        <ele>8</ele>
        <time>2011-11-28T21:45:58Z</time>
      </trkpt>
      <trkpt lat="59.3869798" lon="17.9103827">
        <ele>7.6</ele>
        <time>2011-11-28T21:45:59Z</time>
      </trkpt>
      <trkpt lat="59.3869432" lon="17.9102463">
        <ele>7</ele>
        <time>2011-11-28T21:46:02Z</time>
      </trkpt>
      <trkpt lat="59.3869116" lon="17.9101335">
        <ele>7.4</ele>
        <time>2011-11-28T21:46:05Z</time>
      </trkpt>
      <trkpt lat="59.3868686" lon="17.9101173">
        <ele>7.4</ele>
        <time>2011-11-28T21:46:08Z</time>
      </trkpt>
    </trkseg>
  </trk>
</gpx>